<?xml version="1.0" encoding="UTF-8" standalone="no" ?>
<gpx xmlns="http://www.topografix.com/GPX/1/1" xmlns:xsi="http://www.w3.org/2001/XMLSchema-instance" xsi:schemaLocation="http://www.topografix.com/GPX/1/1 http://www.topografix.com/GPX/1/1/gpx.xsd" version="1.1" creator="VisuGPX - https://www.visugpx.com">
  <metadata>
    <name>depart parking carrière</name>
    <desc><![CDATA[2/3 de piste et 1/3 de sentier, avec un retour par la combe de lourmarin]]></desc>
  </metadata>
  <trk>
    <name><![CDATA[parking carriere]]></name>
    <trkseg>
      <trkpt lat="43.7946" lon="5.34401">
        <ele>254.335144</ele>
        <time>2019-02-13T09:13:13Z</time>
      </trkpt>
      <trkpt lat="43.79453" lon="5.34383">
        <ele>254.039062</ele>
        <time>2019-02-13T09:13:31Z</time>
      </trkpt>
      <trkpt lat="43.79446" lon="5.34364">
        <ele>253.724792</ele>
        <time>2019-02-13T09:14:00Z</time>
      </trkpt>
      <trkpt lat="43.79434" lon="5.34354">
        <ele>253.453003</ele>
        <time>2019-02-13T09:14:21Z</time>
      </trkpt>
      <trkpt lat="43.79441" lon="5.34336">
        <ele>253.318481</ele>
        <time>2019-02-13T09:14:43Z</time>
      </trkpt>
      <trkpt lat="43.79448" lon="5.34318">
        <ele>255.704437</ele>
        <time>2019-02-13T09:14:58Z</time>
      </trkpt>
      <trkpt lat="43.79451" lon="5.34299">
        <ele>258.680573</ele>
        <time>2019-02-13T09:15:13Z</time>
      </trkpt>
      <trkpt lat="43.79448" lon="5.34275">
        <ele>262.040802</ele>
        <time>2019-02-13T09:15:28Z</time>
      </trkpt>
      <trkpt lat="43.79445" lon="5.34249">
        <ele>265.420532</ele>
        <time>2019-02-13T09:15:44Z</time>
      </trkpt>
      <trkpt lat="43.79441" lon="5.34224">
        <ele>266.696136</ele>
        <time>2019-02-13T09:15:59Z</time>
      </trkpt>
      <trkpt lat="43.79439" lon="5.34204">
        <ele>267.600891</ele>
        <time>2019-02-13T09:16:15Z</time>
      </trkpt>
      <trkpt lat="43.79435" lon="5.3418">
        <ele>268.438843</ele>
        <time>2019-02-13T09:16:31Z</time>
      </trkpt>
      <trkpt lat="43.7943" lon="5.34155">
        <ele>269.102448</ele>
        <time>2019-02-13T09:16:47Z</time>
      </trkpt>
      <trkpt lat="43.79432" lon="5.34128">
        <ele>271.832214</ele>
        <time>2019-02-13T09:17:02Z</time>
      </trkpt>
      <trkpt lat="43.7943" lon="5.34107">
        <ele>273.355499</ele>
        <time>2019-02-13T09:17:17Z</time>
      </trkpt>
      <trkpt lat="43.7944" lon="5.34121">
        <ele>274.337494</ele>
        <time>2019-02-13T09:17:50Z</time>
      </trkpt>
      <trkpt lat="43.79449" lon="5.3414">
        <ele>274.943726</ele>
        <time>2019-02-13T09:18:05Z</time>
      </trkpt>
      <trkpt lat="43.79461" lon="5.34155">
        <ele>276.297241</ele>
        <time>2019-02-13T09:18:21Z</time>
      </trkpt>
      <trkpt lat="43.79476" lon="5.34164">
        <ele>278.929382</ele>
        <time>2019-02-13T09:18:37Z</time>
      </trkpt>
      <trkpt lat="43.7949" lon="5.34169">
        <ele>281.401978</ele>
        <time>2019-02-13T09:18:52Z</time>
      </trkpt>
      <trkpt lat="43.79504" lon="5.34178">
        <ele>282.859375</ele>
        <time>2019-02-13T09:19:07Z</time>
      </trkpt>
      <trkpt lat="43.79521" lon="5.34185">
        <ele>283.925171</ele>
        <time>2019-02-13T09:19:23Z</time>
      </trkpt>
      <trkpt lat="43.79533" lon="5.34195">
        <ele>283.798706</ele>
        <time>2019-02-13T09:19:41Z</time>
      </trkpt>
      <trkpt lat="43.79542" lon="5.3421">
        <ele>282.773193</ele>
        <time>2019-02-13T09:20:03Z</time>
      </trkpt>
      <trkpt lat="43.79551" lon="5.34196">
        <ele>285.933594</ele>
        <time>2019-02-13T09:20:25Z</time>
      </trkpt>
      <trkpt lat="43.79545" lon="5.34175">
        <ele>288.160156</ele>
        <time>2019-02-13T09:20:40Z</time>
      </trkpt>
      <trkpt lat="43.79542" lon="5.34152">
        <ele>290.143829</ele>
        <time>2019-02-13T09:20:56Z</time>
      </trkpt>
      <trkpt lat="43.79539" lon="5.34133">
        <ele>291.210632</ele>
        <time>2019-02-13T09:21:12Z</time>
      </trkpt>
      <trkpt lat="43.79537" lon="5.34113">
        <ele>292.549988</ele>
        <time>2019-02-13T09:21:27Z</time>
      </trkpt>
      <trkpt lat="43.79545" lon="5.34094">
        <ele>294.445862</ele>
        <time>2019-02-13T09:21:42Z</time>
      </trkpt>
      <trkpt lat="43.7955" lon="5.34074">
        <ele>296.096619</ele>
        <time>2019-02-13T09:21:58Z</time>
      </trkpt>
      <trkpt lat="43.79555" lon="5.34056">
        <ele>297.59314</ele>
        <time>2019-02-13T09:22:26Z</time>
      </trkpt>
      <trkpt lat="43.79564" lon="5.34039">
        <ele>299.135956</ele>
        <time>2019-02-13T09:22:42Z</time>
      </trkpt>
      <trkpt lat="43.79573" lon="5.34023">
        <ele>300.388824</ele>
        <time>2019-02-13T09:22:58Z</time>
      </trkpt>
      <trkpt lat="43.79585" lon="5.34007">
        <ele>301.486328</ele>
        <time>2019-02-13T09:23:13Z</time>
      </trkpt>
      <trkpt lat="43.79595" lon="5.33992">
        <ele>301.894379</ele>
        <time>2019-02-13T09:23:28Z</time>
      </trkpt>
      <trkpt lat="43.79601" lon="5.33971">
        <ele>303.897614</ele>
        <time>2019-02-13T09:23:44Z</time>
      </trkpt>
      <trkpt lat="43.79607" lon="5.33952">
        <ele>305.704529</ele>
        <time>2019-02-13T09:23:59Z</time>
      </trkpt>
      <trkpt lat="43.79608" lon="5.33925">
        <ele>308.867645</ele>
        <time>2019-02-13T09:24:14Z</time>
      </trkpt>
      <trkpt lat="43.79614" lon="5.33904">
        <ele>310.953491</ele>
        <time>2019-02-13T09:24:29Z</time>
      </trkpt>
      <trkpt lat="43.79617" lon="5.33881">
        <ele>313.510803</ele>
        <time>2019-02-13T09:24:45Z</time>
      </trkpt>
      <trkpt lat="43.7961" lon="5.33864">
        <ele>315.567505</ele>
        <time>2019-02-13T09:25:01Z</time>
      </trkpt>
      <trkpt lat="43.79595" lon="5.33855">
        <ele>316.73465</ele>
        <time>2019-02-13T09:25:16Z</time>
      </trkpt>
      <trkpt lat="43.79583" lon="5.33842">
        <ele>318.150238</ele>
        <time>2019-02-13T09:25:31Z</time>
      </trkpt>
      <trkpt lat="43.79576" lon="5.33822">
        <ele>320.921417</ele>
        <time>2019-02-13T09:25:47Z</time>
      </trkpt>
      <trkpt lat="43.79568" lon="5.33806">
        <ele>323.445618</ele>
        <time>2019-02-13T09:26:02Z</time>
      </trkpt>
      <trkpt lat="43.7956" lon="5.3379">
        <ele>325.856506</ele>
        <time>2019-02-13T09:26:19Z</time>
      </trkpt>
      <trkpt lat="43.79545" lon="5.33786">
        <ele>326.125763</ele>
        <time>2019-02-13T09:26:34Z</time>
      </trkpt>
      <trkpt lat="43.79529" lon="5.33791">
        <ele>325.132324</ele>
        <time>2019-02-13T09:26:50Z</time>
      </trkpt>
      <trkpt lat="43.79525" lon="5.33772">
        <ele>327.487061</ele>
        <time>2019-02-13T09:27:06Z</time>
      </trkpt>
      <trkpt lat="43.79531" lon="5.33753">
        <ele>330.075928</ele>
        <time>2019-02-13T09:27:21Z</time>
      </trkpt>
      <trkpt lat="43.79536" lon="5.33733">
        <ele>331.544922</ele>
        <time>2019-02-13T09:27:36Z</time>
      </trkpt>
      <trkpt lat="43.79535" lon="5.33711">
        <ele>332.487915</ele>
        <time>2019-02-13T09:27:52Z</time>
      </trkpt>
      <trkpt lat="43.79536" lon="5.33692">
        <ele>333.515869</ele>
        <time>2019-02-13T09:28:08Z</time>
      </trkpt>
      <trkpt lat="43.79537" lon="5.33668">
        <ele>334.813599</ele>
        <time>2019-02-13T09:28:23Z</time>
      </trkpt>
      <trkpt lat="43.79538" lon="5.33644">
        <ele>335.132965</ele>
        <time>2019-02-13T09:28:39Z</time>
      </trkpt>
      <trkpt lat="43.79541" lon="5.33621">
        <ele>335.729004</ele>
        <time>2019-02-13T09:28:54Z</time>
      </trkpt>
      <trkpt lat="43.79547" lon="5.33598">
        <ele>336.87558</ele>
        <time>2019-02-13T09:29:10Z</time>
      </trkpt>
      <trkpt lat="43.79554" lon="5.33572">
        <ele>338.704468</ele>
        <time>2019-02-13T09:29:26Z</time>
      </trkpt>
      <trkpt lat="43.79567" lon="5.33549">
        <ele>342.02771</ele>
        <time>2019-02-13T09:29:42Z</time>
      </trkpt>
      <trkpt lat="43.79566" lon="5.33524">
        <ele>342.761078</ele>
        <time>2019-02-13T09:29:58Z</time>
      </trkpt>
      <trkpt lat="43.79559" lon="5.335">
        <ele>342.279053</ele>
        <time>2019-02-13T09:30:13Z</time>
      </trkpt>
      <trkpt lat="43.79552" lon="5.3348">
        <ele>343.089325</ele>
        <time>2019-02-13T09:30:28Z</time>
      </trkpt>
      <trkpt lat="43.79554" lon="5.33455">
        <ele>345.904602</ele>
        <time>2019-02-13T09:30:43Z</time>
      </trkpt>
      <trkpt lat="43.79545" lon="5.33433">
        <ele>346.835815</ele>
        <time>2019-02-13T09:30:59Z</time>
      </trkpt>
      <trkpt lat="43.79535" lon="5.3342">
        <ele>346.668213</ele>
        <time>2019-02-13T09:31:18Z</time>
      </trkpt>
      <trkpt lat="43.79524" lon="5.33408">
        <ele>346.901917</ele>
        <time>2019-02-13T09:31:37Z</time>
      </trkpt>
      <trkpt lat="43.79518" lon="5.33391">
        <ele>348.902832</ele>
        <time>2019-02-13T09:31:53Z</time>
      </trkpt>
      <trkpt lat="43.79515" lon="5.33372">
        <ele>351.628723</ele>
        <time>2019-02-13T09:32:11Z</time>
      </trkpt>
      <trkpt lat="43.79519" lon="5.33354">
        <ele>354.987122</ele>
        <time>2019-02-13T09:32:27Z</time>
      </trkpt>
      <trkpt lat="43.7952" lon="5.33335">
        <ele>358.179138</ele>
        <time>2019-02-13T09:32:43Z</time>
      </trkpt>
      <trkpt lat="43.79516" lon="5.33315">
        <ele>360.467133</ele>
        <time>2019-02-13T09:32:59Z</time>
      </trkpt>
      <trkpt lat="43.79512" lon="5.33296">
        <ele>362.52243</ele>
        <time>2019-02-13T09:33:15Z</time>
      </trkpt>
      <trkpt lat="43.79505" lon="5.3328">
        <ele>364.203735</ele>
        <time>2019-02-13T09:33:33Z</time>
      </trkpt>
      <trkpt lat="43.79498" lon="5.33262">
        <ele>365.960785</ele>
        <time>2019-02-13T09:33:48Z</time>
      </trkpt>
      <trkpt lat="43.79494" lon="5.33244">
        <ele>366.992126</ele>
        <time>2019-02-13T09:34:09Z</time>
      </trkpt>
      <trkpt lat="43.79495" lon="5.33225">
        <ele>369.294342</ele>
        <time>2019-02-13T09:34:27Z</time>
      </trkpt>
      <trkpt lat="43.79494" lon="5.33205">
        <ele>371.26532</ele>
        <time>2019-02-13T09:34:43Z</time>
      </trkpt>
      <trkpt lat="43.79492" lon="5.33186">
        <ele>372.80191</ele>
        <time>2019-02-13T09:35:06Z</time>
      </trkpt>
      <trkpt lat="43.79494" lon="5.33168">
        <ele>375.216919</ele>
        <time>2019-02-13T09:35:27Z</time>
      </trkpt>
      <trkpt lat="43.79493" lon="5.33149">
        <ele>377.676727</ele>
        <time>2019-02-13T09:35:47Z</time>
      </trkpt>
      <trkpt lat="43.79492" lon="5.3313">
        <ele>379.875427</ele>
        <time>2019-02-13T09:36:26Z</time>
      </trkpt>
      <trkpt lat="43.79491" lon="5.33109">
        <ele>382.223633</ele>
        <time>2019-02-13T09:36:42Z</time>
      </trkpt>
      <trkpt lat="43.79496" lon="5.33087">
        <ele>387.122375</ele>
        <time>2019-02-13T09:36:57Z</time>
      </trkpt>
      <trkpt lat="43.79501" lon="5.33067">
        <ele>389.097168</ele>
        <time>2019-02-13T09:37:13Z</time>
      </trkpt>
      <trkpt lat="43.79506" lon="5.33049">
        <ele>389.726746</ele>
        <time>2019-02-13T09:37:31Z</time>
      </trkpt>
      <trkpt lat="43.79511" lon="5.3303">
        <ele>390.790527</ele>
        <time>2019-02-13T09:37:46Z</time>
      </trkpt>
      <trkpt lat="43.79522" lon="5.3301">
        <ele>393.24118</ele>
        <time>2019-02-13T09:38:02Z</time>
      </trkpt>
      <trkpt lat="43.79533" lon="5.32996">
        <ele>396.087097</ele>
        <time>2019-02-13T09:38:17Z</time>
      </trkpt>
      <trkpt lat="43.79548" lon="5.33001">
        <ele>399.269409</ele>
        <time>2019-02-13T09:38:34Z</time>
      </trkpt>
      <trkpt lat="43.79564" lon="5.3301">
        <ele>401.613007</ele>
        <time>2019-02-13T09:38:49Z</time>
      </trkpt>
      <trkpt lat="43.79578" lon="5.33017">
        <ele>403.349213</ele>
        <time>2019-02-13T09:39:05Z</time>
      </trkpt>
      <trkpt lat="43.7959" lon="5.33025">
        <ele>403.998932</ele>
        <time>2019-02-13T09:39:24Z</time>
      </trkpt>
      <trkpt lat="43.79612" lon="5.33026">
        <ele>406.597168</ele>
        <time>2019-02-13T09:39:40Z</time>
      </trkpt>
      <trkpt lat="43.79628" lon="5.33024">
        <ele>408.928528</ele>
        <time>2019-02-13T09:39:56Z</time>
      </trkpt>
      <trkpt lat="43.79643" lon="5.3302">
        <ele>411.721802</ele>
        <time>2019-02-13T09:40:11Z</time>
      </trkpt>
      <trkpt lat="43.79657" lon="5.33016">
        <ele>414.303894</ele>
        <time>2019-02-13T09:40:28Z</time>
      </trkpt>
      <trkpt lat="43.79672" lon="5.33011">
        <ele>416.927307</ele>
        <time>2019-02-13T09:40:43Z</time>
      </trkpt>
      <trkpt lat="43.79678" lon="5.32993">
        <ele>419.96521</ele>
        <time>2019-02-13T09:41:00Z</time>
      </trkpt>
      <trkpt lat="43.79669" lon="5.32978">
        <ele>421.181641</ele>
        <time>2019-02-13T09:41:15Z</time>
      </trkpt>
      <trkpt lat="43.79656" lon="5.32971">
        <ele>420.0336</ele>
        <time>2019-02-13T09:41:31Z</time>
      </trkpt>
      <trkpt lat="43.79647" lon="5.32954">
        <ele>420.098267</ele>
        <time>2019-02-13T09:41:48Z</time>
      </trkpt>
      <trkpt lat="43.79643" lon="5.32934">
        <ele>421.140076</ele>
        <time>2019-02-13T09:42:03Z</time>
      </trkpt>
      <trkpt lat="43.79644" lon="5.32914">
        <ele>422.836487</ele>
        <time>2019-02-13T09:42:20Z</time>
      </trkpt>
      <trkpt lat="43.79644" lon="5.32895">
        <ele>423.958771</ele>
        <time>2019-02-13T09:42:36Z</time>
      </trkpt>
      <trkpt lat="43.79647" lon="5.32873">
        <ele>425.815308</ele>
        <time>2019-02-13T09:42:52Z</time>
      </trkpt>
      <trkpt lat="43.79653" lon="5.32857">
        <ele>428.536377</ele>
        <time>2019-02-13T09:43:07Z</time>
      </trkpt>
      <trkpt lat="43.7966" lon="5.3284">
        <ele>431.652893</ele>
        <time>2019-02-13T09:43:25Z</time>
      </trkpt>
      <trkpt lat="43.79669" lon="5.32825">
        <ele>434.109406</ele>
        <time>2019-02-13T09:43:40Z</time>
      </trkpt>
      <trkpt lat="43.79676" lon="5.32809">
        <ele>434.7659</ele>
        <time>2019-02-13T09:43:58Z</time>
      </trkpt>
      <trkpt lat="43.79683" lon="5.32791">
        <ele>435.794037</ele>
        <time>2019-02-13T09:44:13Z</time>
      </trkpt>
      <trkpt lat="43.79681" lon="5.32766">
        <ele>436.21936</ele>
        <time>2019-02-13T09:44:29Z</time>
      </trkpt>
      <trkpt lat="43.79688" lon="5.32749">
        <ele>437.753876</ele>
        <time>2019-02-13T09:44:46Z</time>
      </trkpt>
      <trkpt lat="43.79692" lon="5.32731">
        <ele>438.534302</ele>
        <time>2019-02-13T09:45:04Z</time>
      </trkpt>
      <trkpt lat="43.797" lon="5.32705">
        <ele>440.050201</ele>
        <time>2019-02-13T09:45:20Z</time>
      </trkpt>
      <trkpt lat="43.79706" lon="5.32685">
        <ele>441.294006</ele>
        <time>2019-02-13T09:45:35Z</time>
      </trkpt>
      <trkpt lat="43.79713" lon="5.32663">
        <ele>443.180847</ele>
        <time>2019-02-13T09:45:51Z</time>
      </trkpt>
      <trkpt lat="43.79717" lon="5.32636">
        <ele>444.811432</ele>
        <time>2019-02-13T09:46:07Z</time>
      </trkpt>
      <trkpt lat="43.7972" lon="5.32612">
        <ele>445.872498</ele>
        <time>2019-02-13T09:46:23Z</time>
      </trkpt>
      <trkpt lat="43.79724" lon="5.32588">
        <ele>447.353394</ele>
        <time>2019-02-13T09:46:39Z</time>
      </trkpt>
      <trkpt lat="43.79733" lon="5.32568">
        <ele>449.306274</ele>
        <time>2019-02-13T09:46:55Z</time>
      </trkpt>
      <trkpt lat="43.79738" lon="5.3255">
        <ele>450.353485</ele>
        <time>2019-02-13T09:47:16Z</time>
      </trkpt>
      <trkpt lat="43.79744" lon="5.32533">
        <ele>451.726776</ele>
        <time>2019-02-13T09:47:41Z</time>
      </trkpt>
      <trkpt lat="43.79751" lon="5.32512">
        <ele>453.237183</ele>
        <time>2019-02-13T09:47:56Z</time>
      </trkpt>
      <trkpt lat="43.79753" lon="5.32493">
        <ele>453.010254</ele>
        <time>2019-02-13T09:48:27Z</time>
      </trkpt>
      <trkpt lat="43.79758" lon="5.32468">
        <ele>451.441711</ele>
        <time>2019-02-13T09:48:42Z</time>
      </trkpt>
      <trkpt lat="43.79764" lon="5.32443">
        <ele>449.928711</ele>
        <time>2019-02-13T09:48:58Z</time>
      </trkpt>
      <trkpt lat="43.79772" lon="5.32421">
        <ele>449.460999</ele>
        <time>2019-02-13T09:49:13Z</time>
      </trkpt>
      <trkpt lat="43.79783" lon="5.32398">
        <ele>449.804016</ele>
        <time>2019-02-13T09:49:29Z</time>
      </trkpt>
      <trkpt lat="43.79793" lon="5.32377">
        <ele>450.042358</ele>
        <time>2019-02-13T09:49:44Z</time>
      </trkpt>
      <trkpt lat="43.79802" lon="5.32357">
        <ele>450.6026</ele>
        <time>2019-02-13T09:50:00Z</time>
      </trkpt>
      <trkpt lat="43.79809" lon="5.32328">
        <ele>449.793793</ele>
        <time>2019-02-13T09:50:16Z</time>
      </trkpt>
      <trkpt lat="43.79815" lon="5.32304">
        <ele>450.835388</ele>
        <time>2019-02-13T09:50:32Z</time>
      </trkpt>
      <trkpt lat="43.7982" lon="5.32281">
        <ele>451.408356</ele>
        <time>2019-02-13T09:50:49Z</time>
      </trkpt>
      <trkpt lat="43.79833" lon="5.32262">
        <ele>454.489594</ele>
        <time>2019-02-13T09:51:05Z</time>
      </trkpt>
      <trkpt lat="43.79844" lon="5.32248">
        <ele>456.298096</ele>
        <time>2019-02-13T09:51:20Z</time>
      </trkpt>
      <trkpt lat="43.79852" lon="5.32227">
        <ele>457.094086</ele>
        <time>2019-02-13T09:51:35Z</time>
      </trkpt>
      <trkpt lat="43.79858" lon="5.32209">
        <ele>457.356995</ele>
        <time>2019-02-13T09:51:52Z</time>
      </trkpt>
      <trkpt lat="43.7986" lon="5.32181">
        <ele>455.996826</ele>
        <time>2019-02-13T09:52:08Z</time>
      </trkpt>
      <trkpt lat="43.79868" lon="5.32163">
        <ele>456.807983</ele>
        <time>2019-02-13T09:52:23Z</time>
      </trkpt>
      <trkpt lat="43.7988" lon="5.32141">
        <ele>459.493591</ele>
        <time>2019-02-13T09:52:39Z</time>
      </trkpt>
      <trkpt lat="43.79887" lon="5.32123">
        <ele>460.760925</ele>
        <time>2019-02-13T09:52:54Z</time>
      </trkpt>
      <trkpt lat="43.79895" lon="5.32101">
        <ele>462.037964</ele>
        <time>2019-02-13T09:53:10Z</time>
      </trkpt>
      <trkpt lat="43.799" lon="5.32081">
        <ele>462.758301</ele>
        <time>2019-02-13T09:53:26Z</time>
      </trkpt>
      <trkpt lat="43.79904" lon="5.32058">
        <ele>463.726868</ele>
        <time>2019-02-13T09:53:42Z</time>
      </trkpt>
      <trkpt lat="43.7991" lon="5.32037">
        <ele>464.74762</ele>
        <time>2019-02-13T09:53:57Z</time>
      </trkpt>
      <trkpt lat="43.79905" lon="5.32012">
        <ele>464.007355</ele>
        <time>2019-02-13T09:54:13Z</time>
      </trkpt>
      <trkpt lat="43.79901" lon="5.31991">
        <ele>463.793854</ele>
        <time>2019-02-13T09:54:28Z</time>
      </trkpt>
      <trkpt lat="43.79902" lon="5.31971">
        <ele>464.810791</ele>
        <time>2019-02-13T09:54:43Z</time>
      </trkpt>
      <trkpt lat="43.79905" lon="5.31948">
        <ele>466.442841</ele>
        <time>2019-02-13T09:54:59Z</time>
      </trkpt>
      <trkpt lat="43.79918" lon="5.31937">
        <ele>469.294098</ele>
        <time>2019-02-13T09:55:15Z</time>
      </trkpt>
      <trkpt lat="43.79934" lon="5.31928">
        <ele>474.282135</ele>
        <time>2019-02-13T09:55:30Z</time>
      </trkpt>
      <trkpt lat="43.79945" lon="5.31917">
        <ele>477.802856</ele>
        <time>2019-02-13T09:55:48Z</time>
      </trkpt>
      <trkpt lat="43.79955" lon="5.31904">
        <ele>480.408783</ele>
        <time>2019-02-13T09:56:03Z</time>
      </trkpt>
      <trkpt lat="43.79967" lon="5.31886">
        <ele>483.654358</ele>
        <time>2019-02-13T09:56:19Z</time>
      </trkpt>
      <trkpt lat="43.79975" lon="5.31866">
        <ele>485.62381</ele>
        <time>2019-02-13T09:56:35Z</time>
      </trkpt>
      <trkpt lat="43.79978" lon="5.31846">
        <ele>486.585052</ele>
        <time>2019-02-13T09:56:51Z</time>
      </trkpt>
      <trkpt lat="43.79974" lon="5.31822">
        <ele>484.849548</ele>
        <time>2019-02-13T09:57:07Z</time>
      </trkpt>
      <trkpt lat="43.79978" lon="5.31804">
        <ele>485.332123</ele>
        <time>2019-02-13T09:57:25Z</time>
      </trkpt>
      <trkpt lat="43.79979" lon="5.31784">
        <ele>484.762817</ele>
        <time>2019-02-13T09:57:41Z</time>
      </trkpt>
      <trkpt lat="43.79988" lon="5.31763">
        <ele>486.449554</ele>
        <time>2019-02-13T09:57:57Z</time>
      </trkpt>
      <trkpt lat="43.79998" lon="5.31749">
        <ele>488.099457</ele>
        <time>2019-02-13T09:58:25Z</time>
      </trkpt>
      <trkpt lat="43.80012" lon="5.31736">
        <ele>488.894653</ele>
        <time>2019-02-13T09:58:41Z</time>
      </trkpt>
      <trkpt lat="43.80029" lon="5.31727">
        <ele>491.057739</ele>
        <time>2019-02-13T09:58:56Z</time>
      </trkpt>
      <trkpt lat="43.80051" lon="5.31715">
        <ele>494.006622</ele>
        <time>2019-02-13T09:59:12Z</time>
      </trkpt>
      <trkpt lat="43.80061" lon="5.31697">
        <ele>494.380951</ele>
        <time>2019-02-13T09:59:28Z</time>
      </trkpt>
      <trkpt lat="43.80066" lon="5.31677">
        <ele>493.307617</ele>
        <time>2019-02-13T09:59:43Z</time>
      </trkpt>
      <trkpt lat="43.80069" lon="5.31653">
        <ele>492.948853</ele>
        <time>2019-02-13T09:59:59Z</time>
      </trkpt>
      <trkpt lat="43.8007" lon="5.3163">
        <ele>492.932922</ele>
        <time>2019-02-13T10:00:14Z</time>
      </trkpt>
      <trkpt lat="43.80076" lon="5.31608">
        <ele>494.118317</ele>
        <time>2019-02-13T10:00:30Z</time>
      </trkpt>
      <trkpt lat="43.80082" lon="5.31585">
        <ele>495.543518</ele>
        <time>2019-02-13T10:00:46Z</time>
      </trkpt>
      <trkpt lat="43.80085" lon="5.31565">
        <ele>495.006256</ele>
        <time>2019-02-13T10:01:01Z</time>
      </trkpt>
      <trkpt lat="43.80091" lon="5.31545">
        <ele>494.894653</ele>
        <time>2019-02-13T10:01:16Z</time>
      </trkpt>
      <trkpt lat="43.80098" lon="5.31525">
        <ele>494.777863</ele>
        <time>2019-02-13T10:01:32Z</time>
      </trkpt>
      <trkpt lat="43.80108" lon="5.31506">
        <ele>495.24353</ele>
        <time>2019-02-13T10:01:47Z</time>
      </trkpt>
      <trkpt lat="43.8012" lon="5.31488">
        <ele>495.36499</ele>
        <time>2019-02-13T10:02:03Z</time>
      </trkpt>
      <trkpt lat="43.80135" lon="5.3148">
        <ele>496.977478</ele>
        <time>2019-02-13T10:02:18Z</time>
      </trkpt>
      <trkpt lat="43.80154" lon="5.31474">
        <ele>499.432007</ele>
        <time>2019-02-13T10:02:34Z</time>
      </trkpt>
      <trkpt lat="43.80171" lon="5.31472">
        <ele>501.692139</ele>
        <time>2019-02-13T10:02:50Z</time>
      </trkpt>
      <trkpt lat="43.8019" lon="5.31475">
        <ele>504.1745</ele>
        <time>2019-02-13T10:03:06Z</time>
      </trkpt>
      <trkpt lat="43.80208" lon="5.31478">
        <ele>506.595825</ele>
        <time>2019-02-13T10:03:21Z</time>
      </trkpt>
      <trkpt lat="43.80223" lon="5.31484">
        <ele>509.088989</ele>
        <time>2019-02-13T10:03:36Z</time>
      </trkpt>
      <trkpt lat="43.80237" lon="5.31488">
        <ele>511.15625</ele>
        <time>2019-02-13T10:03:52Z</time>
      </trkpt>
      <trkpt lat="43.80252" lon="5.3149">
        <ele>512.924072</ele>
        <time>2019-02-13T10:04:08Z</time>
      </trkpt>
      <trkpt lat="43.80266" lon="5.31488">
        <ele>513.771851</ele>
        <time>2019-02-13T10:04:24Z</time>
      </trkpt>
      <trkpt lat="43.80279" lon="5.31481">
        <ele>514.19812</ele>
        <time>2019-02-13T10:04:39Z</time>
      </trkpt>
      <trkpt lat="43.80295" lon="5.3147">
        <ele>514.797363</ele>
        <time>2019-02-13T10:04:55Z</time>
      </trkpt>
      <trkpt lat="43.80307" lon="5.31452">
        <ele>514.886597</ele>
        <time>2019-02-13T10:05:11Z</time>
      </trkpt>
      <trkpt lat="43.80318" lon="5.31436">
        <ele>515.502747</ele>
        <time>2019-02-13T10:05:27Z</time>
      </trkpt>
      <trkpt lat="43.80327" lon="5.31418">
        <ele>516.069214</ele>
        <time>2019-02-13T10:05:42Z</time>
      </trkpt>
      <trkpt lat="43.80339" lon="5.31402">
        <ele>517.661926</ele>
        <time>2019-02-13T10:05:58Z</time>
      </trkpt>
      <trkpt lat="43.80334" lon="5.31384">
        <ele>518.561829</ele>
        <time>2019-02-13T10:06:18Z</time>
      </trkpt>
      <trkpt lat="43.80319" lon="5.31376">
        <ele>516.88623</ele>
        <time>2019-02-13T10:06:34Z</time>
      </trkpt>
      <trkpt lat="43.80296" lon="5.31375">
        <ele>513.798401</ele>
        <time>2019-02-13T10:06:49Z</time>
      </trkpt>
      <trkpt lat="43.80277" lon="5.31364">
        <ele>512.1604</ele>
        <time>2019-02-13T10:07:04Z</time>
      </trkpt>
      <trkpt lat="43.80263" lon="5.31349">
        <ele>511.937317</ele>
        <time>2019-02-13T10:07:19Z</time>
      </trkpt>
      <trkpt lat="43.80244" lon="5.31332">
        <ele>510.981323</ele>
        <time>2019-02-13T10:07:35Z</time>
      </trkpt>
      <trkpt lat="43.80231" lon="5.31307">
        <ele>512.004761</ele>
        <time>2019-02-13T10:07:51Z</time>
      </trkpt>
      <trkpt lat="43.80219" lon="5.31293">
        <ele>511.548737</ele>
        <time>2019-02-13T10:08:06Z</time>
      </trkpt>
      <trkpt lat="43.80208" lon="5.31271">
        <ele>512.32312</ele>
        <time>2019-02-13T10:08:22Z</time>
      </trkpt>
      <trkpt lat="43.80197" lon="5.3125">
        <ele>513.014832</ele>
        <time>2019-02-13T10:08:38Z</time>
      </trkpt>
      <trkpt lat="43.80182" lon="5.31221">
        <ele>514.394836</ele>
        <time>2019-02-13T10:08:54Z</time>
      </trkpt>
      <trkpt lat="43.80166" lon="5.31217">
        <ele>512.231812</ele>
        <time>2019-02-13T10:09:09Z</time>
      </trkpt>
      <trkpt lat="43.80147" lon="5.31205">
        <ele>511.292694</ele>
        <time>2019-02-13T10:09:24Z</time>
      </trkpt>
      <trkpt lat="43.80127" lon="5.31199">
        <ele>508.990784</ele>
        <time>2019-02-13T10:09:40Z</time>
      </trkpt>
      <trkpt lat="43.80106" lon="5.31191">
        <ele>506.566803</ele>
        <time>2019-02-13T10:09:55Z</time>
      </trkpt>
      <trkpt lat="43.80089" lon="5.31183">
        <ele>504.722046</ele>
        <time>2019-02-13T10:10:10Z</time>
      </trkpt>
      <trkpt lat="43.80077" lon="5.31167">
        <ele>504.507355</ele>
        <time>2019-02-13T10:10:25Z</time>
      </trkpt>
      <trkpt lat="43.80072" lon="5.3114">
        <ele>504.846802</ele>
        <time>2019-02-13T10:10:41Z</time>
      </trkpt>
      <trkpt lat="43.80068" lon="5.31121">
        <ele>504.932129</ele>
        <time>2019-02-13T10:11:04Z</time>
      </trkpt>
      <trkpt lat="43.80064" lon="5.31098">
        <ele>505.037964</ele>
        <time>2019-02-13T10:11:19Z</time>
      </trkpt>
      <trkpt lat="43.80066" lon="5.31068">
        <ele>505.359314</ele>
        <time>2019-02-13T10:11:35Z</time>
      </trkpt>
      <trkpt lat="43.80069" lon="5.31042">
        <ele>504.510223</ele>
        <time>2019-02-13T10:11:51Z</time>
      </trkpt>
      <trkpt lat="43.80066" lon="5.31016">
        <ele>502.407959</ele>
        <time>2019-02-13T10:12:07Z</time>
      </trkpt>
      <trkpt lat="43.80057" lon="5.30992">
        <ele>500.018127</ele>
        <time>2019-02-13T10:12:22Z</time>
      </trkpt>
      <trkpt lat="43.80057" lon="5.30964">
        <ele>499.309265</ele>
        <time>2019-02-13T10:12:38Z</time>
      </trkpt>
      <trkpt lat="43.80066" lon="5.30941">
        <ele>499.274872</ele>
        <time>2019-02-13T10:12:53Z</time>
      </trkpt>
      <trkpt lat="43.80083" lon="5.30924">
        <ele>499.408997</ele>
        <time>2019-02-13T10:13:09Z</time>
      </trkpt>
      <trkpt lat="43.80099" lon="5.30908">
        <ele>500.746277</ele>
        <time>2019-02-13T10:13:25Z</time>
      </trkpt>
      <trkpt lat="43.80088" lon="5.30894">
        <ele>501.436493</ele>
        <time>2019-02-13T10:13:41Z</time>
      </trkpt>
      <trkpt lat="43.80068" lon="5.30886">
        <ele>501.553894</ele>
        <time>2019-02-13T10:13:57Z</time>
      </trkpt>
      <trkpt lat="43.80051" lon="5.3089">
        <ele>500.795898</ele>
        <time>2019-02-13T10:14:12Z</time>
      </trkpt>
      <trkpt lat="43.80033" lon="5.30897">
        <ele>499.503082</ele>
        <time>2019-02-13T10:14:28Z</time>
      </trkpt>
      <trkpt lat="43.80019" lon="5.30908">
        <ele>497.722656</ele>
        <time>2019-02-13T10:14:43Z</time>
      </trkpt>
      <trkpt lat="43.80001" lon="5.30907">
        <ele>497.289429</ele>
        <time>2019-02-13T10:14:59Z</time>
      </trkpt>
      <trkpt lat="43.79982" lon="5.30897">
        <ele>500.665466</ele>
        <time>2019-02-13T10:15:15Z</time>
      </trkpt>
      <trkpt lat="43.79965" lon="5.30881">
        <ele>504.237854</ele>
        <time>2019-02-13T10:15:30Z</time>
      </trkpt>
      <trkpt lat="43.79947" lon="5.30888">
        <ele>505.519562</ele>
        <time>2019-02-13T10:15:45Z</time>
      </trkpt>
      <trkpt lat="43.79939" lon="5.30906">
        <ele>504.928741</ele>
        <time>2019-02-13T10:16:01Z</time>
      </trkpt>
      <trkpt lat="43.79937" lon="5.30926">
        <ele>503.933838</ele>
        <time>2019-02-13T10:16:17Z</time>
      </trkpt>
      <trkpt lat="43.79931" lon="5.30944">
        <ele>503.770264</ele>
        <time>2019-02-13T10:16:34Z</time>
      </trkpt>
      <trkpt lat="43.79921" lon="5.30957">
        <ele>504.520813</ele>
        <time>2019-02-13T10:16:49Z</time>
      </trkpt>
      <trkpt lat="43.79907" lon="5.30972">
        <ele>506.565125</ele>
        <time>2019-02-13T10:17:04Z</time>
      </trkpt>
      <trkpt lat="43.79895" lon="5.3099">
        <ele>508.173523</ele>
        <time>2019-02-13T10:17:20Z</time>
      </trkpt>
      <trkpt lat="43.79884" lon="5.31014">
        <ele>508.839355</ele>
        <time>2019-02-13T10:17:36Z</time>
      </trkpt>
      <trkpt lat="43.79873" lon="5.31033">
        <ele>509.100464</ele>
        <time>2019-02-13T10:17:51Z</time>
      </trkpt>
      <trkpt lat="43.79862" lon="5.31057">
        <ele>508.616943</ele>
        <time>2019-02-13T10:18:06Z</time>
      </trkpt>
      <trkpt lat="43.79849" lon="5.31075">
        <ele>508.770538</ele>
        <time>2019-02-13T10:18:22Z</time>
      </trkpt>
      <trkpt lat="43.79839" lon="5.31089">
        <ele>508.610565</ele>
        <time>2019-02-13T10:18:47Z</time>
      </trkpt>
      <trkpt lat="43.79823" lon="5.31101">
        <ele>509.774414</ele>
        <time>2019-02-13T10:19:03Z</time>
      </trkpt>
      <trkpt lat="43.79811" lon="5.31112">
        <ele>510.318787</ele>
        <time>2019-02-13T10:19:22Z</time>
      </trkpt>
      <trkpt lat="43.79796" lon="5.31126">
        <ele>510.790771</ele>
        <time>2019-02-13T10:19:38Z</time>
      </trkpt>
      <trkpt lat="43.79782" lon="5.3114">
        <ele>510.8479</ele>
        <time>2019-02-13T10:19:54Z</time>
      </trkpt>
      <trkpt lat="43.79768" lon="5.31153">
        <ele>510.78241</ele>
        <time>2019-02-13T10:20:10Z</time>
      </trkpt>
      <trkpt lat="43.79758" lon="5.31167">
        <ele>510.025879</ele>
        <time>2019-02-13T10:20:44Z</time>
      </trkpt>
      <trkpt lat="43.79754" lon="5.31193">
        <ele>511.113892</ele>
        <time>2019-02-13T10:21:00Z</time>
      </trkpt>
      <trkpt lat="43.79752" lon="5.31214">
        <ele>511.804077</ele>
        <time>2019-02-13T10:21:15Z</time>
      </trkpt>
      <trkpt lat="43.79748" lon="5.31233">
        <ele>512.929749</ele>
        <time>2019-02-13T10:21:52Z</time>
      </trkpt>
      <trkpt lat="43.79736" lon="5.31248">
        <ele>514.954529</ele>
        <time>2019-02-13T10:22:08Z</time>
      </trkpt>
      <trkpt lat="43.79723" lon="5.31241">
        <ele>516.776794</ele>
        <time>2019-02-13T10:22:23Z</time>
      </trkpt>
      <trkpt lat="43.79708" lon="5.31241">
        <ele>518.83905</ele>
        <time>2019-02-13T10:22:40Z</time>
      </trkpt>
      <trkpt lat="43.79693" lon="5.31234">
        <ele>521.039429</ele>
        <time>2019-02-13T10:22:55Z</time>
      </trkpt>
      <trkpt lat="43.79679" lon="5.31229">
        <ele>522.945862</ele>
        <time>2019-02-13T10:23:16Z</time>
      </trkpt>
      <trkpt lat="43.79667" lon="5.31221">
        <ele>524.655151</ele>
        <time>2019-02-13T10:23:32Z</time>
      </trkpt>
      <trkpt lat="43.79653" lon="5.31219">
        <ele>525.677063</ele>
        <time>2019-02-13T10:23:47Z</time>
      </trkpt>
      <trkpt lat="43.79637" lon="5.31215">
        <ele>526.910034</ele>
        <time>2019-02-13T10:24:02Z</time>
      </trkpt>
      <trkpt lat="43.79624" lon="5.31207">
        <ele>528.085266</ele>
        <time>2019-02-13T10:24:19Z</time>
      </trkpt>
      <trkpt lat="43.79607" lon="5.31199">
        <ele>529.852173</ele>
        <time>2019-02-13T10:24:35Z</time>
      </trkpt>
      <trkpt lat="43.79588" lon="5.31201">
        <ele>531.514648</ele>
        <time>2019-02-13T10:24:51Z</time>
      </trkpt>
      <trkpt lat="43.79575" lon="5.31205">
        <ele>532.274475</ele>
        <time>2019-02-13T10:25:11Z</time>
      </trkpt>
      <trkpt lat="43.79561" lon="5.31209">
        <ele>532.946838</ele>
        <time>2019-02-13T10:25:26Z</time>
      </trkpt>
      <trkpt lat="43.79546" lon="5.3121">
        <ele>533.889648</ele>
        <time>2019-02-13T10:25:56Z</time>
      </trkpt>
      <trkpt lat="43.7953" lon="5.31219">
        <ele>534.173584</ele>
        <time>2019-02-13T10:26:12Z</time>
      </trkpt>
      <trkpt lat="43.79516" lon="5.31221">
        <ele>534.782837</ele>
        <time>2019-02-13T10:26:28Z</time>
      </trkpt>
      <trkpt lat="43.79502" lon="5.31222">
        <ele>535.622192</ele>
        <time>2019-02-13T10:26:44Z</time>
      </trkpt>
      <trkpt lat="43.79486" lon="5.31225">
        <ele>536.098816</ele>
        <time>2019-02-13T10:27:00Z</time>
      </trkpt>
      <trkpt lat="43.79469" lon="5.31231">
        <ele>536.476318</ele>
        <time>2019-02-13T10:27:15Z</time>
      </trkpt>
      <trkpt lat="43.7945" lon="5.31237">
        <ele>536.774414</ele>
        <time>2019-02-13T10:27:31Z</time>
      </trkpt>
      <trkpt lat="43.79433" lon="5.31237">
        <ele>537.534912</ele>
        <time>2019-02-13T10:27:47Z</time>
      </trkpt>
      <trkpt lat="43.79414" lon="5.31238">
        <ele>538.228333</ele>
        <time>2019-02-13T10:28:03Z</time>
      </trkpt>
      <trkpt lat="43.79398" lon="5.31237">
        <ele>537.741699</ele>
        <time>2019-02-13T10:28:18Z</time>
      </trkpt>
      <trkpt lat="43.79381" lon="5.31235">
        <ele>537.220154</ele>
        <time>2019-02-13T10:28:33Z</time>
      </trkpt>
      <trkpt lat="43.79364" lon="5.31229">
        <ele>537.236145</ele>
        <time>2019-02-13T10:28:49Z</time>
      </trkpt>
      <trkpt lat="43.79344" lon="5.31226">
        <ele>536.769287</ele>
        <time>2019-02-13T10:29:05Z</time>
      </trkpt>
      <trkpt lat="43.79331" lon="5.31214">
        <ele>537.237854</ele>
        <time>2019-02-13T10:29:20Z</time>
      </trkpt>
      <trkpt lat="43.79323" lon="5.31196">
        <ele>538.5271</ele>
        <time>2019-02-13T10:29:35Z</time>
      </trkpt>
      <trkpt lat="43.79307" lon="5.31177">
        <ele>540.058716</ele>
        <time>2019-02-13T10:29:51Z</time>
      </trkpt>
      <trkpt lat="43.7929" lon="5.3117">
        <ele>540.394897</ele>
        <time>2019-02-13T10:30:06Z</time>
      </trkpt>
      <trkpt lat="43.79276" lon="5.31168">
        <ele>540.414978</ele>
        <time>2019-02-13T10:30:28Z</time>
      </trkpt>
      <trkpt lat="43.79259" lon="5.31174">
        <ele>538.824036</ele>
        <time>2019-02-13T10:30:44Z</time>
      </trkpt>
      <trkpt lat="43.79245" lon="5.31178">
        <ele>538.077209</ele>
        <time>2019-02-13T10:31:06Z</time>
      </trkpt>
      <trkpt lat="43.79234" lon="5.31187">
        <ele>536.953064</ele>
        <time>2019-02-13T10:31:48Z</time>
      </trkpt>
      <trkpt lat="43.79217" lon="5.312">
        <ele>535.917114</ele>
        <time>2019-02-13T10:32:03Z</time>
      </trkpt>
      <trkpt lat="43.79202" lon="5.31204">
        <ele>536.369995</ele>
        <time>2019-02-13T10:32:19Z</time>
      </trkpt>
      <trkpt lat="43.79185" lon="5.31206">
        <ele>537.250427</ele>
        <time>2019-02-13T10:32:34Z</time>
      </trkpt>
      <trkpt lat="43.79169" lon="5.31209">
        <ele>538.158264</ele>
        <time>2019-02-13T10:32:49Z</time>
      </trkpt>
      <trkpt lat="43.79155" lon="5.31211">
        <ele>535.61908</ele>
        <time>2019-02-13T10:33:21Z</time>
      </trkpt>
      <trkpt lat="43.7914" lon="5.3122">
        <ele>531.713989</ele>
        <time>2019-02-13T10:33:36Z</time>
      </trkpt>
      <trkpt lat="43.79129" lon="5.31234">
        <ele>529.036194</ele>
        <time>2019-02-13T10:33:59Z</time>
      </trkpt>
      <trkpt lat="43.79119" lon="5.31248">
        <ele>527.457275</ele>
        <time>2019-02-13T10:34:14Z</time>
      </trkpt>
      <trkpt lat="43.79112" lon="5.31264">
        <ele>528.014099</ele>
        <time>2019-02-13T10:34:34Z</time>
      </trkpt>
      <trkpt lat="43.79105" lon="5.31281">
        <ele>529.470093</ele>
        <time>2019-02-13T10:34:50Z</time>
      </trkpt>
      <trkpt lat="43.79099" lon="5.313">
        <ele>531.746521</ele>
        <time>2019-02-13T10:35:05Z</time>
      </trkpt>
      <trkpt lat="43.79091" lon="5.31322">
        <ele>535.381348</ele>
        <time>2019-02-13T10:35:21Z</time>
      </trkpt>
      <trkpt lat="43.79083" lon="5.31342">
        <ele>538.490295</ele>
        <time>2019-02-13T10:35:37Z</time>
      </trkpt>
      <trkpt lat="43.79075" lon="5.31358">
        <ele>537.97937</ele>
        <time>2019-02-13T10:35:53Z</time>
      </trkpt>
      <trkpt lat="43.79068" lon="5.31374">
        <ele>538.398193</ele>
        <time>2019-02-13T10:36:10Z</time>
      </trkpt>
      <trkpt lat="43.79065" lon="5.31392">
        <ele>540.076721</ele>
        <time>2019-02-13T10:36:25Z</time>
      </trkpt>
      <trkpt lat="43.79067" lon="5.31413">
        <ele>542.35675</ele>
        <time>2019-02-13T10:37:04Z</time>
      </trkpt>
      <trkpt lat="43.79062" lon="5.31441">
        <ele>544.984131</ele>
        <time>2019-02-13T10:37:19Z</time>
      </trkpt>
      <trkpt lat="43.79069" lon="5.31471">
        <ele>547.483582</ele>
        <time>2019-02-13T10:37:35Z</time>
      </trkpt>
      <trkpt lat="43.79085" lon="5.31489">
        <ele>547.756409</ele>
        <time>2019-02-13T10:37:50Z</time>
      </trkpt>
      <trkpt lat="43.79104" lon="5.31504">
        <ele>543.151794</ele>
        <time>2019-02-13T10:38:06Z</time>
      </trkpt>
      <trkpt lat="43.79119" lon="5.31521">
        <ele>538.384155</ele>
        <time>2019-02-13T10:38:21Z</time>
      </trkpt>
      <trkpt lat="43.79118" lon="5.31548">
        <ele>538.033752</ele>
        <time>2019-02-13T10:38:36Z</time>
      </trkpt>
      <trkpt lat="43.79114" lon="5.31575">
        <ele>539.131226</ele>
        <time>2019-02-13T10:38:52Z</time>
      </trkpt>
      <trkpt lat="43.79109" lon="5.31599">
        <ele>539.261292</ele>
        <time>2019-02-13T10:39:08Z</time>
      </trkpt>
      <trkpt lat="43.79106" lon="5.31624">
        <ele>538.038147</ele>
        <time>2019-02-13T10:39:23Z</time>
      </trkpt>
      <trkpt lat="43.79104" lon="5.31649">
        <ele>536.67865</ele>
        <time>2019-02-13T10:39:39Z</time>
      </trkpt>
      <trkpt lat="43.791" lon="5.31674">
        <ele>535.719421</ele>
        <time>2019-02-13T10:39:55Z</time>
      </trkpt>
      <trkpt lat="43.79097" lon="5.31698">
        <ele>535.27948</ele>
        <time>2019-02-13T10:40:10Z</time>
      </trkpt>
      <trkpt lat="43.79091" lon="5.31723">
        <ele>535.398743</ele>
        <time>2019-02-13T10:40:25Z</time>
      </trkpt>
      <trkpt lat="43.7908" lon="5.31743">
        <ele>536.785645</ele>
        <time>2019-02-13T10:40:41Z</time>
      </trkpt>
      <trkpt lat="43.79072" lon="5.31764">
        <ele>535.633057</ele>
        <time>2019-02-13T10:40:56Z</time>
      </trkpt>
      <trkpt lat="43.79063" lon="5.31789">
        <ele>533.59259</ele>
        <time>2019-02-13T10:41:12Z</time>
      </trkpt>
      <trkpt lat="43.79058" lon="5.31813">
        <ele>531.220337</ele>
        <time>2019-02-13T10:41:28Z</time>
      </trkpt>
      <trkpt lat="43.79064" lon="5.31835">
        <ele>529.644348</ele>
        <time>2019-02-13T10:41:43Z</time>
      </trkpt>
      <trkpt lat="43.79078" lon="5.31852">
        <ele>532.091797</ele>
        <time>2019-02-13T10:41:59Z</time>
      </trkpt>
      <trkpt lat="43.79095" lon="5.31869">
        <ele>530.465027</ele>
        <time>2019-02-13T10:42:15Z</time>
      </trkpt>
      <trkpt lat="43.79106" lon="5.31881">
        <ele>528.880127</ele>
        <time>2019-02-13T10:42:44Z</time>
      </trkpt>
      <trkpt lat="43.7912" lon="5.31898">
        <ele>527.158691</ele>
        <time>2019-02-13T10:42:59Z</time>
      </trkpt>
      <trkpt lat="43.79137" lon="5.3191">
        <ele>524.776245</ele>
        <time>2019-02-13T10:43:15Z</time>
      </trkpt>
      <trkpt lat="43.7915" lon="5.31929">
        <ele>523.161194</ele>
        <time>2019-02-13T10:43:31Z</time>
      </trkpt>
      <trkpt lat="43.79154" lon="5.31954">
        <ele>523.326538</ele>
        <time>2019-02-13T10:43:46Z</time>
      </trkpt>
      <trkpt lat="43.79157" lon="5.31978">
        <ele>523.54364</ele>
        <time>2019-02-13T10:44:01Z</time>
      </trkpt>
      <trkpt lat="43.79159" lon="5.32003">
        <ele>523.961487</ele>
        <time>2019-02-13T10:44:16Z</time>
      </trkpt>
      <trkpt lat="43.79165" lon="5.32025">
        <ele>521.967041</ele>
        <time>2019-02-13T10:44:31Z</time>
      </trkpt>
      <trkpt lat="43.7917" lon="5.32051">
        <ele>519.285522</ele>
        <time>2019-02-13T10:44:47Z</time>
      </trkpt>
      <trkpt lat="43.79171" lon="5.32075">
        <ele>518.227905</ele>
        <time>2019-02-13T10:45:02Z</time>
      </trkpt>
      <trkpt lat="43.79154" lon="5.32087">
        <ele>518.646851</ele>
        <time>2019-02-13T10:45:18Z</time>
      </trkpt>
      <trkpt lat="43.79139" lon="5.32088">
        <ele>518.822021</ele>
        <time>2019-02-13T10:45:35Z</time>
      </trkpt>
      <trkpt lat="43.79117" lon="5.32089">
        <ele>519.451172</ele>
        <time>2019-02-13T10:45:51Z</time>
      </trkpt>
      <trkpt lat="43.791" lon="5.32089">
        <ele>520.05719</ele>
        <time>2019-02-13T10:46:07Z</time>
      </trkpt>
      <trkpt lat="43.79082" lon="5.32087">
        <ele>520.995056</ele>
        <time>2019-02-13T10:46:22Z</time>
      </trkpt>
      <trkpt lat="43.79059" lon="5.32091">
        <ele>519.511475</ele>
        <time>2019-02-13T10:46:38Z</time>
      </trkpt>
      <trkpt lat="43.79039" lon="5.32087">
        <ele>519.410522</ele>
        <time>2019-02-13T10:46:54Z</time>
      </trkpt>
      <trkpt lat="43.79018" lon="5.3208">
        <ele>519.221985</ele>
        <time>2019-02-13T10:47:10Z</time>
      </trkpt>
      <trkpt lat="43.79004" lon="5.32078">
        <ele>518.728088</ele>
        <time>2019-02-13T10:47:27Z</time>
      </trkpt>
      <trkpt lat="43.78988" lon="5.32085">
        <ele>516.534912</ele>
        <time>2019-02-13T10:47:42Z</time>
      </trkpt>
      <trkpt lat="43.78974" lon="5.32086">
        <ele>514.985474</ele>
        <time>2019-02-13T10:47:57Z</time>
      </trkpt>
      <trkpt lat="43.78978" lon="5.32106">
        <ele>516.126709</ele>
        <time>2019-02-13T10:48:42Z</time>
      </trkpt>
      <trkpt lat="43.78986" lon="5.32125">
        <ele>517.078552</ele>
        <time>2019-02-13T10:48:58Z</time>
      </trkpt>
      <trkpt lat="43.7899" lon="5.32143">
        <ele>517.367188</ele>
        <time>2019-02-13T10:49:16Z</time>
      </trkpt>
      <trkpt lat="43.78998" lon="5.3216">
        <ele>517.156189</ele>
        <time>2019-02-13T10:49:34Z</time>
      </trkpt>
      <trkpt lat="43.79001" lon="5.32179">
        <ele>517.790649</ele>
        <time>2019-02-13T10:49:49Z</time>
      </trkpt>
      <trkpt lat="43.79003" lon="5.32201">
        <ele>518.733765</ele>
        <time>2019-02-13T10:50:05Z</time>
      </trkpt>
      <trkpt lat="43.79006" lon="5.32221">
        <ele>519.22699</ele>
        <time>2019-02-13T10:50:21Z</time>
      </trkpt>
      <trkpt lat="43.79014" lon="5.32243">
        <ele>518.347046</ele>
        <time>2019-02-13T10:50:37Z</time>
      </trkpt>
      <trkpt lat="43.79008" lon="5.32264">
        <ele>519.05365</ele>
        <time>2019-02-13T10:50:52Z</time>
      </trkpt>
      <trkpt lat="43.78995" lon="5.32276">
        <ele>519.984497</ele>
        <time>2019-02-13T10:51:08Z</time>
      </trkpt>
      <trkpt lat="43.78981" lon="5.32282">
        <ele>519.547607</ele>
        <time>2019-02-13T10:51:25Z</time>
      </trkpt>
      <trkpt lat="43.78962" lon="5.32297">
        <ele>518.700317</ele>
        <time>2019-02-13T10:51:40Z</time>
      </trkpt>
      <trkpt lat="43.78943" lon="5.32307">
        <ele>518.716675</ele>
        <time>2019-02-13T10:51:56Z</time>
      </trkpt>
      <trkpt lat="43.7893" lon="5.32319">
        <ele>518.755066</ele>
        <time>2019-02-13T10:52:12Z</time>
      </trkpt>
      <trkpt lat="43.78919" lon="5.32337">
        <ele>518.417847</ele>
        <time>2019-02-13T10:52:27Z</time>
      </trkpt>
      <trkpt lat="43.78909" lon="5.3235">
        <ele>515.135742</ele>
        <time>2019-02-13T10:52:44Z</time>
      </trkpt>
      <trkpt lat="43.78902" lon="5.32365">
        <ele>512.112366</ele>
        <time>2019-02-13T10:53:03Z</time>
      </trkpt>
      <trkpt lat="43.78893" lon="5.32387">
        <ele>509.600861</ele>
        <time>2019-02-13T10:53:19Z</time>
      </trkpt>
      <trkpt lat="43.78882" lon="5.32408">
        <ele>508.26712</ele>
        <time>2019-02-13T10:53:34Z</time>
      </trkpt>
      <trkpt lat="43.78876" lon="5.32431">
        <ele>508.702637</ele>
        <time>2019-02-13T10:53:49Z</time>
      </trkpt>
      <trkpt lat="43.7887" lon="5.32451">
        <ele>509.955078</ele>
        <time>2019-02-13T10:54:05Z</time>
      </trkpt>
      <trkpt lat="43.78861" lon="5.32465">
        <ele>511.810669</ele>
        <time>2019-02-13T10:55:13Z</time>
      </trkpt>
      <trkpt lat="43.78844" lon="5.3248">
        <ele>515.680542</ele>
        <time>2019-02-13T10:55:28Z</time>
      </trkpt>
      <trkpt lat="43.78824" lon="5.32491">
        <ele>519.429871</ele>
        <time>2019-02-13T10:55:44Z</time>
      </trkpt>
      <trkpt lat="43.78806" lon="5.32491">
        <ele>519.468506</ele>
        <time>2019-02-13T10:56:00Z</time>
      </trkpt>
      <trkpt lat="43.7878" lon="5.32491">
        <ele>519.702881</ele>
        <time>2019-02-13T10:56:15Z</time>
      </trkpt>
      <trkpt lat="43.78768" lon="5.3248">
        <ele>516.393066</ele>
        <time>2019-02-13T10:56:30Z</time>
      </trkpt>
      <trkpt lat="43.78757" lon="5.32468">
        <ele>512.08252</ele>
        <time>2019-02-13T10:56:46Z</time>
      </trkpt>
      <trkpt lat="43.7874" lon="5.32468">
        <ele>511.481201</ele>
        <time>2019-02-13T10:57:01Z</time>
      </trkpt>
      <trkpt lat="43.78732" lon="5.32447">
        <ele>505.156006</ele>
        <time>2019-02-13T10:57:17Z</time>
      </trkpt>
      <trkpt lat="43.78722" lon="5.32474">
        <ele>512.886902</ele>
        <time>2019-02-13T10:57:32Z</time>
      </trkpt>
      <trkpt lat="43.78704" lon="5.32478">
        <ele>513.180298</ele>
        <time>2019-02-13T10:57:48Z</time>
      </trkpt>
      <trkpt lat="43.78685" lon="5.32504">
        <ele>518.026367</ele>
        <time>2019-02-13T10:58:03Z</time>
      </trkpt>
      <trkpt lat="43.78672" lon="5.32514">
        <ele>519.134583</ele>
        <time>2019-02-13T10:58:25Z</time>
      </trkpt>
      <trkpt lat="43.78648" lon="5.32533">
        <ele>527.126404</ele>
        <time>2019-02-13T10:58:40Z</time>
      </trkpt>
      <trkpt lat="43.78639" lon="5.32519">
        <ele>526.587952</ele>
        <time>2019-02-13T10:59:17Z</time>
      </trkpt>
      <trkpt lat="43.78636" lon="5.32499">
        <ele>524.190613</ele>
        <time>2019-02-13T10:59:33Z</time>
      </trkpt>
      <trkpt lat="43.78638" lon="5.32479">
        <ele>521.764893</ele>
        <time>2019-02-13T10:59:49Z</time>
      </trkpt>
      <trkpt lat="43.78636" lon="5.32459">
        <ele>520.855957</ele>
        <time>2019-02-13T11:00:04Z</time>
      </trkpt>
      <trkpt lat="43.78638" lon="5.32439">
        <ele>518.502808</ele>
        <time>2019-02-13T11:00:33Z</time>
      </trkpt>
      <trkpt lat="43.78634" lon="5.3242">
        <ele>519.082825</ele>
        <time>2019-02-13T11:01:04Z</time>
      </trkpt>
      <trkpt lat="43.78634" lon="5.32393">
        <ele>518.030029</ele>
        <time>2019-02-13T11:01:19Z</time>
      </trkpt>
      <trkpt lat="43.78638" lon="5.32374">
        <ele>515.808472</ele>
        <time>2019-02-13T11:01:37Z</time>
      </trkpt>
      <trkpt lat="43.78631" lon="5.32354">
        <ele>518.443115</ele>
        <time>2019-02-13T11:01:52Z</time>
      </trkpt>
      <trkpt lat="43.7862" lon="5.32331">
        <ele>522.069702</ele>
        <time>2019-02-13T11:02:08Z</time>
      </trkpt>
      <trkpt lat="43.78624" lon="5.3231">
        <ele>517.158203</ele>
        <time>2019-02-13T11:02:23Z</time>
      </trkpt>
      <trkpt lat="43.78617" lon="5.32289">
        <ele>516.168518</ele>
        <time>2019-02-13T11:02:38Z</time>
      </trkpt>
      <trkpt lat="43.78609" lon="5.32273">
        <ele>515.944031</ele>
        <time>2019-02-13T11:02:55Z</time>
      </trkpt>
      <trkpt lat="43.78596" lon="5.32261">
        <ele>518.303711</ele>
        <time>2019-02-13T11:03:10Z</time>
      </trkpt>
      <trkpt lat="43.78582" lon="5.32257">
        <ele>521.808167</ele>
        <time>2019-02-13T11:03:28Z</time>
      </trkpt>
      <trkpt lat="43.78568" lon="5.32249">
        <ele>522.315063</ele>
        <time>2019-02-13T11:03:44Z</time>
      </trkpt>
      <trkpt lat="43.78554" lon="5.3225">
        <ele>524.861328</ele>
        <time>2019-02-13T11:04:00Z</time>
      </trkpt>
      <trkpt lat="43.7854" lon="5.32252">
        <ele>527.708923</ele>
        <time>2019-02-13T11:04:15Z</time>
      </trkpt>
      <trkpt lat="43.78525" lon="5.32256">
        <ele>531.185669</ele>
        <time>2019-02-13T11:04:31Z</time>
      </trkpt>
      <trkpt lat="43.78512" lon="5.32263">
        <ele>535.378113</ele>
        <time>2019-02-13T11:04:51Z</time>
      </trkpt>
      <trkpt lat="43.78488" lon="5.32274">
        <ele>542.586487</ele>
        <time>2019-02-13T11:05:07Z</time>
      </trkpt>
      <trkpt lat="43.78474" lon="5.32272">
        <ele>544.570312</ele>
        <time>2019-02-13T11:05:25Z</time>
      </trkpt>
      <trkpt lat="43.78466" lon="5.32257">
        <ele>542.319702</ele>
        <time>2019-02-13T11:05:41Z</time>
      </trkpt>
      <trkpt lat="43.78454" lon="5.32247">
        <ele>541.983154</ele>
        <time>2019-02-13T11:06:06Z</time>
      </trkpt>
      <trkpt lat="43.7844" lon="5.32248">
        <ele>544.928528</ele>
        <time>2019-02-13T11:06:35Z</time>
      </trkpt>
      <trkpt lat="43.78427" lon="5.32241">
        <ele>544.895264</ele>
        <time>2019-02-13T11:07:04Z</time>
      </trkpt>
      <trkpt lat="43.78413" lon="5.32244">
        <ele>548.087952</ele>
        <time>2019-02-13T11:07:27Z</time>
      </trkpt>
      <trkpt lat="43.78399" lon="5.32246">
        <ele>549.438171</ele>
        <time>2019-02-13T11:08:31Z</time>
      </trkpt>
      <trkpt lat="43.78387" lon="5.32256">
        <ele>552.794434</ele>
        <time>2019-02-13T11:08:51Z</time>
      </trkpt>
      <trkpt lat="43.78376" lon="5.32269">
        <ele>556.41803</ele>
        <time>2019-02-13T11:09:12Z</time>
      </trkpt>
      <trkpt lat="43.78366" lon="5.32282">
        <ele>560.209961</ele>
        <time>2019-02-13T11:09:43Z</time>
      </trkpt>
      <trkpt lat="43.78354" lon="5.32292">
        <ele>563.582397</ele>
        <time>2019-02-13T11:10:05Z</time>
      </trkpt>
      <trkpt lat="43.78341" lon="5.32301">
        <ele>566.70575</ele>
        <time>2019-02-13T11:10:26Z</time>
      </trkpt>
      <trkpt lat="43.78327" lon="5.32303">
        <ele>566.245422</ele>
        <time>2019-02-13T11:10:48Z</time>
      </trkpt>
      <trkpt lat="43.78314" lon="5.32308">
        <ele>563.613892</ele>
        <time>2019-02-13T11:11:14Z</time>
      </trkpt>
      <trkpt lat="43.78307" lon="5.32325">
        <ele>565.384888</ele>
        <time>2019-02-13T11:11:36Z</time>
      </trkpt>
      <trkpt lat="43.78311" lon="5.32343">
        <ele>569.671936</ele>
        <time>2019-02-13T11:12:05Z</time>
      </trkpt>
      <trkpt lat="43.78324" lon="5.32349">
        <ele>574.592773</ele>
        <time>2019-02-13T11:12:22Z</time>
      </trkpt>
      <trkpt lat="43.78332" lon="5.32365">
        <ele>579.226501</ele>
        <time>2019-02-13T11:12:46Z</time>
      </trkpt>
      <trkpt lat="43.78333" lon="5.32383">
        <ele>581.948975</ele>
        <time>2019-02-13T11:13:06Z</time>
      </trkpt>
      <trkpt lat="43.78335" lon="5.32402">
        <ele>584.147766</ele>
        <time>2019-02-13T11:13:32Z</time>
      </trkpt>
      <trkpt lat="43.78339" lon="5.3242">
        <ele>586.001099</ele>
        <time>2019-02-13T11:13:52Z</time>
      </trkpt>
      <trkpt lat="43.78349" lon="5.32434">
        <ele>586.414551</ele>
        <time>2019-02-13T11:14:08Z</time>
      </trkpt>
      <trkpt lat="43.78361" lon="5.32451">
        <ele>587.444275</ele>
        <time>2019-02-13T11:14:24Z</time>
      </trkpt>
      <trkpt lat="43.7837" lon="5.32466">
        <ele>588.764465</ele>
        <time>2019-02-13T11:14:42Z</time>
      </trkpt>
      <trkpt lat="43.78374" lon="5.32486">
        <ele>590.364136</ele>
        <time>2019-02-13T11:14:58Z</time>
      </trkpt>
      <trkpt lat="43.78383" lon="5.325">
        <ele>592.381348</ele>
        <time>2019-02-13T11:15:16Z</time>
      </trkpt>
      <trkpt lat="43.78389" lon="5.32518">
        <ele>592.197998</ele>
        <time>2019-02-13T11:16:02Z</time>
      </trkpt>
      <trkpt lat="43.78387" lon="5.32539">
        <ele>591.050171</ele>
        <time>2019-02-13T11:16:17Z</time>
      </trkpt>
      <trkpt lat="43.78382" lon="5.32564">
        <ele>589.483887</ele>
        <time>2019-02-13T11:16:32Z</time>
      </trkpt>
      <trkpt lat="43.78383" lon="5.3259">
        <ele>588.898804</ele>
        <time>2019-02-13T11:16:48Z</time>
      </trkpt>
      <trkpt lat="43.78383" lon="5.32615">
        <ele>589.435425</ele>
        <time>2019-02-13T11:17:03Z</time>
      </trkpt>
      <trkpt lat="43.78382" lon="5.32636">
        <ele>589.807495</ele>
        <time>2019-02-13T11:17:18Z</time>
      </trkpt>
      <trkpt lat="43.78381" lon="5.32656">
        <ele>590.187988</ele>
        <time>2019-02-13T11:17:34Z</time>
      </trkpt>
      <trkpt lat="43.78383" lon="5.32675">
        <ele>591.596497</ele>
        <time>2019-02-13T11:17:51Z</time>
      </trkpt>
      <trkpt lat="43.78384" lon="5.32695">
        <ele>593.983887</ele>
        <time>2019-02-13T11:18:07Z</time>
      </trkpt>
      <trkpt lat="43.78385" lon="5.32714">
        <ele>596.430725</ele>
        <time>2019-02-13T11:18:34Z</time>
      </trkpt>
      <trkpt lat="43.78389" lon="5.32732">
        <ele>599.136414</ele>
        <time>2019-02-13T11:18:51Z</time>
      </trkpt>
      <trkpt lat="43.7839" lon="5.32752">
        <ele>601.51593</ele>
        <time>2019-02-13T11:19:10Z</time>
      </trkpt>
      <trkpt lat="43.78393" lon="5.32773">
        <ele>602.372559</ele>
        <time>2019-02-13T11:19:26Z</time>
      </trkpt>
      <trkpt lat="43.78392" lon="5.32793">
        <ele>602.746399</ele>
        <time>2019-02-13T11:19:43Z</time>
      </trkpt>
      <trkpt lat="43.78398" lon="5.32811">
        <ele>604.000549</ele>
        <time>2019-02-13T11:19:58Z</time>
      </trkpt>
      <trkpt lat="43.78414" lon="5.32823">
        <ele>606.402283</ele>
        <time>2019-02-13T11:20:13Z</time>
      </trkpt>
      <trkpt lat="43.78427" lon="5.32842">
        <ele>604.715759</ele>
        <time>2019-02-13T11:20:29Z</time>
      </trkpt>
      <trkpt lat="43.78438" lon="5.32858">
        <ele>601.895752</ele>
        <time>2019-02-13T11:20:44Z</time>
      </trkpt>
      <trkpt lat="43.7845" lon="5.32878">
        <ele>599.181274</ele>
        <time>2019-02-13T11:21:00Z</time>
      </trkpt>
      <trkpt lat="43.78462" lon="5.32897">
        <ele>597.138672</ele>
        <time>2019-02-13T11:21:16Z</time>
      </trkpt>
      <trkpt lat="43.7847" lon="5.32922">
        <ele>595.265198</ele>
        <time>2019-02-13T11:21:32Z</time>
      </trkpt>
      <trkpt lat="43.78477" lon="5.32938">
        <ele>593.744385</ele>
        <time>2019-02-13T11:22:04Z</time>
      </trkpt>
      <trkpt lat="43.78479" lon="5.32957">
        <ele>592.210876</ele>
        <time>2019-02-13T11:22:20Z</time>
      </trkpt>
      <trkpt lat="43.78478" lon="5.32977">
        <ele>590.613037</ele>
        <time>2019-02-13T11:23:32Z</time>
      </trkpt>
      <trkpt lat="43.78482" lon="5.32998">
        <ele>589.100403</ele>
        <time>2019-02-13T11:23:47Z</time>
      </trkpt>
      <trkpt lat="43.78488" lon="5.33015">
        <ele>590.104126</ele>
        <time>2019-02-13T11:24:04Z</time>
      </trkpt>
      <trkpt lat="43.78497" lon="5.33032">
        <ele>591.977661</ele>
        <time>2019-02-13T11:24:20Z</time>
      </trkpt>
      <trkpt lat="43.785" lon="5.33051">
        <ele>593.657349</ele>
        <time>2019-02-13T11:24:36Z</time>
      </trkpt>
      <trkpt lat="43.78505" lon="5.33071">
        <ele>593.86084</ele>
        <time>2019-02-13T11:24:52Z</time>
      </trkpt>
      <trkpt lat="43.78513" lon="5.33088">
        <ele>592.872192</ele>
        <time>2019-02-13T11:25:07Z</time>
      </trkpt>
      <trkpt lat="43.78515" lon="5.3311">
        <ele>592.47113</ele>
        <time>2019-02-13T11:25:23Z</time>
      </trkpt>
      <trkpt lat="43.78518" lon="5.33129">
        <ele>591.906555</ele>
        <time>2019-02-13T11:25:39Z</time>
      </trkpt>
      <trkpt lat="43.78519" lon="5.33148">
        <ele>591.882996</ele>
        <time>2019-02-13T11:25:54Z</time>
      </trkpt>
      <trkpt lat="43.78516" lon="5.3317">
        <ele>592.207825</ele>
        <time>2019-02-13T11:26:10Z</time>
      </trkpt>
      <trkpt lat="43.78513" lon="5.3319">
        <ele>590.640808</ele>
        <time>2019-02-13T11:26:26Z</time>
      </trkpt>
      <trkpt lat="43.78505" lon="5.33218">
        <ele>589.107849</ele>
        <time>2019-02-13T11:26:42Z</time>
      </trkpt>
      <trkpt lat="43.78506" lon="5.3324">
        <ele>586.828796</ele>
        <time>2019-02-13T11:26:57Z</time>
      </trkpt>
      <trkpt lat="43.78505" lon="5.33258">
        <ele>585.104919</ele>
        <time>2019-02-13T11:27:36Z</time>
      </trkpt>
      <trkpt lat="43.78501" lon="5.33277">
        <ele>584.181152</ele>
        <time>2019-02-13T11:27:51Z</time>
      </trkpt>
      <trkpt lat="43.78495" lon="5.33293">
        <ele>581.96582</ele>
        <time>2019-02-13T11:28:26Z</time>
      </trkpt>
      <trkpt lat="43.78484" lon="5.33305">
        <ele>579.112122</ele>
        <time>2019-02-13T11:28:46Z</time>
      </trkpt>
      <trkpt lat="43.78469" lon="5.33302">
        <ele>577.042236</ele>
        <time>2019-02-13T11:29:02Z</time>
      </trkpt>
      <trkpt lat="43.78456" lon="5.333">
        <ele>574.943726</ele>
        <time>2019-02-13T11:29:22Z</time>
      </trkpt>
      <trkpt lat="43.78442" lon="5.33303">
        <ele>572.573425</ele>
        <time>2019-02-13T11:29:39Z</time>
      </trkpt>
      <trkpt lat="43.78429" lon="5.33309">
        <ele>570.147949</ele>
        <time>2019-02-13T11:30:14Z</time>
      </trkpt>
      <trkpt lat="43.78417" lon="5.33318">
        <ele>567.775879</ele>
        <time>2019-02-13T11:30:31Z</time>
      </trkpt>
      <trkpt lat="43.78407" lon="5.33332">
        <ele>563.737549</ele>
        <time>2019-02-13T11:30:55Z</time>
      </trkpt>
      <trkpt lat="43.78393" lon="5.33354">
        <ele>556.415283</ele>
        <time>2019-02-13T11:31:11Z</time>
      </trkpt>
      <trkpt lat="43.78379" lon="5.33353">
        <ele>552.064148</ele>
        <time>2019-02-13T11:31:32Z</time>
      </trkpt>
      <trkpt lat="43.78365" lon="5.3335">
        <ele>547.884827</ele>
        <time>2019-02-13T11:31:52Z</time>
      </trkpt>
      <trkpt lat="43.78352" lon="5.33345">
        <ele>543.881897</ele>
        <time>2019-02-13T11:32:09Z</time>
      </trkpt>
      <trkpt lat="43.7834" lon="5.33335">
        <ele>541.141052</ele>
        <time>2019-02-13T11:32:29Z</time>
      </trkpt>
      <trkpt lat="43.78325" lon="5.33336">
        <ele>537.739502</ele>
        <time>2019-02-13T11:32:45Z</time>
      </trkpt>
      <trkpt lat="43.7831" lon="5.33333">
        <ele>536.177612</ele>
        <time>2019-02-13T11:33:00Z</time>
      </trkpt>
      <trkpt lat="43.78292" lon="5.33333">
        <ele>534.036621</ele>
        <time>2019-02-13T11:33:16Z</time>
      </trkpt>
      <trkpt lat="43.78306" lon="5.33336">
        <ele>535.39801</ele>
        <time>2019-02-13T11:34:22Z</time>
      </trkpt>
      <trkpt lat="43.78322" lon="5.33339">
        <ele>536.969055</ele>
        <time>2019-02-13T11:34:37Z</time>
      </trkpt>
      <trkpt lat="43.78339" lon="5.33336">
        <ele>540.480347</ele>
        <time>2019-02-13T11:34:52Z</time>
      </trkpt>
      <trkpt lat="43.78352" lon="5.33344">
        <ele>543.969238</ele>
        <time>2019-02-13T11:35:13Z</time>
      </trkpt>
      <trkpt lat="43.78365" lon="5.33346">
        <ele>548.21106</ele>
        <time>2019-02-13T11:35:36Z</time>
      </trkpt>
      <trkpt lat="43.78379" lon="5.33345">
        <ele>552.86322</ele>
        <time>2019-02-13T11:35:58Z</time>
      </trkpt>
      <trkpt lat="43.78365" lon="5.33349">
        <ele>547.928833</ele>
        <time>2019-02-13T11:37:33Z</time>
      </trkpt>
      <trkpt lat="43.78353" lon="5.33338">
        <ele>545.238647</ele>
        <time>2019-02-13T11:41:28Z</time>
      </trkpt>
      <trkpt lat="43.7834" lon="5.33333">
        <ele>541.131775</ele>
        <time>2019-02-13T11:41:48Z</time>
      </trkpt>
      <trkpt lat="43.78322" lon="5.33338">
        <ele>537.12207</ele>
        <time>2019-02-13T11:42:03Z</time>
      </trkpt>
      <trkpt lat="43.78305" lon="5.33333">
        <ele>535.547241</ele>
        <time>2019-02-13T11:42:19Z</time>
      </trkpt>
      <trkpt lat="43.7829" lon="5.33332">
        <ele>533.730957</ele>
        <time>2019-02-13T11:42:34Z</time>
      </trkpt>
      <trkpt lat="43.78277" lon="5.33325">
        <ele>531.530151</ele>
        <time>2019-02-13T11:43:11Z</time>
      </trkpt>
      <trkpt lat="43.7826" lon="5.3333">
        <ele>529.817261</ele>
        <time>2019-02-13T11:43:27Z</time>
      </trkpt>
      <trkpt lat="43.78245" lon="5.3333">
        <ele>528.660217</ele>
        <time>2019-02-13T11:43:42Z</time>
      </trkpt>
      <trkpt lat="43.78226" lon="5.33327">
        <ele>528.672913</ele>
        <time>2019-02-13T11:43:58Z</time>
      </trkpt>
      <trkpt lat="43.7821" lon="5.33327">
        <ele>529.033936</ele>
        <time>2019-02-13T11:44:13Z</time>
      </trkpt>
      <trkpt lat="43.78193" lon="5.33333">
        <ele>530.282593</ele>
        <time>2019-02-13T11:44:29Z</time>
      </trkpt>
      <trkpt lat="43.78178" lon="5.33319">
        <ele>528.686707</ele>
        <time>2019-02-13T11:44:45Z</time>
      </trkpt>
      <trkpt lat="43.78165" lon="5.33322">
        <ele>529.130493</ele>
        <time>2019-02-13T11:45:06Z</time>
      </trkpt>
      <trkpt lat="43.78151" lon="5.33321">
        <ele>526.956116</ele>
        <time>2019-02-13T11:45:25Z</time>
      </trkpt>
      <trkpt lat="43.78137" lon="5.33331">
        <ele>526.650024</ele>
        <time>2019-02-13T11:45:41Z</time>
      </trkpt>
      <trkpt lat="43.78122" lon="5.33339">
        <ele>524.464966</ele>
        <time>2019-02-13T11:45:57Z</time>
      </trkpt>
      <trkpt lat="43.78105" lon="5.33348">
        <ele>521.503601</ele>
        <time>2019-02-13T11:46:12Z</time>
      </trkpt>
      <trkpt lat="43.78098" lon="5.33364">
        <ele>519.300842</ele>
        <time>2019-02-13T11:46:28Z</time>
      </trkpt>
      <trkpt lat="43.78084" lon="5.3337">
        <ele>517.903198</ele>
        <time>2019-02-13T11:46:58Z</time>
      </trkpt>
      <trkpt lat="43.78085" lon="5.3339">
        <ele>516.688477</ele>
        <time>2019-02-13T11:48:18Z</time>
      </trkpt>
      <trkpt lat="43.78089" lon="5.33409">
        <ele>515.493652</ele>
        <time>2019-02-13T11:48:33Z</time>
      </trkpt>
      <trkpt lat="43.78083" lon="5.33426">
        <ele>513.077698</ele>
        <time>2019-02-13T11:48:58Z</time>
      </trkpt>
      <trkpt lat="43.78072" lon="5.33444">
        <ele>509.115082</ele>
        <time>2019-02-13T11:49:14Z</time>
      </trkpt>
      <trkpt lat="43.78073" lon="5.33463">
        <ele>504.817352</ele>
        <time>2019-02-13T11:58:51Z</time>
      </trkpt>
      <trkpt lat="43.78069" lon="5.33482">
        <ele>500.691956</ele>
        <time>2019-02-13T11:59:07Z</time>
      </trkpt>
      <trkpt lat="43.78074" lon="5.335">
        <ele>496.892212</ele>
        <time>2019-02-13T11:59:22Z</time>
      </trkpt>
      <trkpt lat="43.78071" lon="5.33518">
        <ele>492.533203</ele>
        <time>2019-02-13T11:59:40Z</time>
      </trkpt>
      <trkpt lat="43.78085" lon="5.33521">
        <ele>491.72113</ele>
        <time>2019-02-13T12:00:52Z</time>
      </trkpt>
      <trkpt lat="43.7807" lon="5.33522">
        <ele>491.621765</ele>
        <time>2019-02-13T12:01:27Z</time>
      </trkpt>
      <trkpt lat="43.78055" lon="5.33523">
        <ele>490.984467</ele>
        <time>2019-02-13T12:01:42Z</time>
      </trkpt>
      <trkpt lat="43.78043" lon="5.33534">
        <ele>488.543945</ele>
        <time>2019-02-13T12:02:01Z</time>
      </trkpt>
      <trkpt lat="43.78027" lon="5.33531">
        <ele>488.869446</ele>
        <time>2019-02-13T12:02:17Z</time>
      </trkpt>
      <trkpt lat="43.78015" lon="5.33542">
        <ele>486.513916</ele>
        <time>2019-02-13T12:02:39Z</time>
      </trkpt>
      <trkpt lat="43.78003" lon="5.33555">
        <ele>483.706482</ele>
        <time>2019-02-13T12:02:54Z</time>
      </trkpt>
      <trkpt lat="43.77995" lon="5.33573">
        <ele>480.358429</ele>
        <time>2019-02-13T12:03:11Z</time>
      </trkpt>
      <trkpt lat="43.77984" lon="5.33586">
        <ele>478.35968</ele>
        <time>2019-02-13T12:03:28Z</time>
      </trkpt>
      <trkpt lat="43.77973" lon="5.33596">
        <ele>477.023376</ele>
        <time>2019-02-13T12:03:43Z</time>
      </trkpt>
      <trkpt lat="43.77963" lon="5.33609">
        <ele>475.022339</ele>
        <time>2019-02-13T12:04:01Z</time>
      </trkpt>
      <trkpt lat="43.77954" lon="5.33631">
        <ele>470.810974</ele>
        <time>2019-02-13T12:04:17Z</time>
      </trkpt>
      <trkpt lat="43.77952" lon="5.3365">
        <ele>467.009338</ele>
        <time>2019-02-13T12:04:32Z</time>
      </trkpt>
      <trkpt lat="43.77936" lon="5.33665">
        <ele>463.279602</ele>
        <time>2019-02-13T12:04:48Z</time>
      </trkpt>
      <trkpt lat="43.77931" lon="5.33683">
        <ele>459.391327</ele>
        <time>2019-02-13T12:05:09Z</time>
      </trkpt>
      <trkpt lat="43.77928" lon="5.33712">
        <ele>453.626526</ele>
        <time>2019-02-13T12:05:25Z</time>
      </trkpt>
      <trkpt lat="43.77918" lon="5.33726">
        <ele>450.697388</ele>
        <time>2019-02-13T12:05:43Z</time>
      </trkpt>
      <trkpt lat="43.77914" lon="5.33743">
        <ele>447.543579</ele>
        <time>2019-02-13T12:06:00Z</time>
      </trkpt>
      <trkpt lat="43.77906" lon="5.33766">
        <ele>442.785889</ele>
        <time>2019-02-13T12:06:16Z</time>
      </trkpt>
      <trkpt lat="43.77893" lon="5.33788">
        <ele>438.537079</ele>
        <time>2019-02-13T12:06:32Z</time>
      </trkpt>
      <trkpt lat="43.77883" lon="5.33802">
        <ele>435.983093</ele>
        <time>2019-02-13T12:06:49Z</time>
      </trkpt>
      <trkpt lat="43.77872" lon="5.33815">
        <ele>433.839417</ele>
        <time>2019-02-13T12:07:06Z</time>
      </trkpt>
      <trkpt lat="43.77857" lon="5.3383">
        <ele>431.461456</ele>
        <time>2019-02-13T12:07:21Z</time>
      </trkpt>
      <trkpt lat="43.77847" lon="5.33844">
        <ele>429.831177</ele>
        <time>2019-02-13T12:07:42Z</time>
      </trkpt>
      <trkpt lat="43.77839" lon="5.33861">
        <ele>427.975464</ele>
        <time>2019-02-13T12:07:59Z</time>
      </trkpt>
      <trkpt lat="43.77834" lon="5.33884">
        <ele>425.103119</ele>
        <time>2019-02-13T12:08:15Z</time>
      </trkpt>
      <trkpt lat="43.77819" lon="5.33897">
        <ele>423.931641</ele>
        <time>2019-02-13T12:08:31Z</time>
      </trkpt>
      <trkpt lat="43.77808" lon="5.3391">
        <ele>422.102905</ele>
        <time>2019-02-13T12:08:46Z</time>
      </trkpt>
      <trkpt lat="43.778" lon="5.33929">
        <ele>419.723694</ele>
        <time>2019-02-13T12:09:01Z</time>
      </trkpt>
      <trkpt lat="43.77789" lon="5.33958">
        <ele>415.967438</ele>
        <time>2019-02-13T12:09:16Z</time>
      </trkpt>
      <trkpt lat="43.77776" lon="5.33967">
        <ele>414.114075</ele>
        <time>2019-02-13T12:09:31Z</time>
      </trkpt>
      <trkpt lat="43.77763" lon="5.33976">
        <ele>411.7146</ele>
        <time>2019-02-13T12:09:47Z</time>
      </trkpt>
      <trkpt lat="43.77749" lon="5.34001">
        <ele>406.002167</ele>
        <time>2019-02-13T12:10:02Z</time>
      </trkpt>
      <trkpt lat="43.77737" lon="5.34013">
        <ele>405.615387</ele>
        <time>2019-02-13T12:10:18Z</time>
      </trkpt>
      <trkpt lat="43.77714" lon="5.34029">
        <ele>404.287659</ele>
        <time>2019-02-13T12:10:34Z</time>
      </trkpt>
      <trkpt lat="43.77699" lon="5.34017">
        <ele>403.034058</ele>
        <time>2019-02-13T12:10:49Z</time>
      </trkpt>
      <trkpt lat="43.7768" lon="5.34042">
        <ele>401.595764</ele>
        <time>2019-02-13T12:11:05Z</time>
      </trkpt>
      <trkpt lat="43.77665" lon="5.34027">
        <ele>400.630768</ele>
        <time>2019-02-13T12:11:21Z</time>
      </trkpt>
      <trkpt lat="43.77649" lon="5.34026">
        <ele>400.223907</ele>
        <time>2019-02-13T12:11:37Z</time>
      </trkpt>
      <trkpt lat="43.77636" lon="5.34038">
        <ele>398.798035</ele>
        <time>2019-02-13T12:11:53Z</time>
      </trkpt>
      <trkpt lat="43.77625" lon="5.34055">
        <ele>396.174744</ele>
        <time>2019-02-13T12:12:09Z</time>
      </trkpt>
      <trkpt lat="43.7761" lon="5.34059">
        <ele>394.130127</ele>
        <time>2019-02-13T12:12:25Z</time>
      </trkpt>
      <trkpt lat="43.77597" lon="5.34068">
        <ele>391.063477</ele>
        <time>2019-02-13T12:12:41Z</time>
      </trkpt>
      <trkpt lat="43.77583" lon="5.34072">
        <ele>388.575134</ele>
        <time>2019-02-13T12:12:59Z</time>
      </trkpt>
      <trkpt lat="43.77564" lon="5.34088">
        <ele>387.174622</ele>
        <time>2019-02-13T12:13:15Z</time>
      </trkpt>
      <trkpt lat="43.77555" lon="5.34105">
        <ele>387.152161</ele>
        <time>2019-02-13T12:13:32Z</time>
      </trkpt>
      <trkpt lat="43.77539" lon="5.34129">
        <ele>385.592255</ele>
        <time>2019-02-13T12:13:48Z</time>
      </trkpt>
      <trkpt lat="43.77528" lon="5.34146">
        <ele>383.285065</ele>
        <time>2019-02-13T12:14:04Z</time>
      </trkpt>
      <trkpt lat="43.77523" lon="5.34173">
        <ele>379.879578</ele>
        <time>2019-02-13T12:14:19Z</time>
      </trkpt>
      <trkpt lat="43.77515" lon="5.34189">
        <ele>376.700317</ele>
        <time>2019-02-13T12:14:36Z</time>
      </trkpt>
      <trkpt lat="43.7751" lon="5.3422">
        <ele>371.85553</ele>
        <time>2019-02-13T12:14:52Z</time>
      </trkpt>
      <trkpt lat="43.77507" lon="5.3424">
        <ele>368.182953</ele>
        <time>2019-02-13T12:15:07Z</time>
      </trkpt>
      <trkpt lat="43.77493" lon="5.34251">
        <ele>365.675629</ele>
        <time>2019-02-13T12:15:22Z</time>
      </trkpt>
      <trkpt lat="43.77488" lon="5.34269">
        <ele>363.951416</ele>
        <time>2019-02-13T12:15:44Z</time>
      </trkpt>
      <trkpt lat="43.77489" lon="5.3429">
        <ele>361.193604</ele>
        <time>2019-02-13T12:15:59Z</time>
      </trkpt>
      <trkpt lat="43.77492" lon="5.34311">
        <ele>358.076385</ele>
        <time>2019-02-13T12:16:15Z</time>
      </trkpt>
      <trkpt lat="43.77494" lon="5.34334">
        <ele>354.822632</ele>
        <time>2019-02-13T12:16:30Z</time>
      </trkpt>
      <trkpt lat="43.77495" lon="5.34354">
        <ele>353.452209</ele>
        <time>2019-02-13T12:16:45Z</time>
      </trkpt>
      <trkpt lat="43.77497" lon="5.34376">
        <ele>351.770935</ele>
        <time>2019-02-13T12:17:01Z</time>
      </trkpt>
      <trkpt lat="43.77496" lon="5.34401">
        <ele>350.425568</ele>
        <time>2019-02-13T12:17:16Z</time>
      </trkpt>
      <trkpt lat="43.77497" lon="5.34425">
        <ele>348.885254</ele>
        <time>2019-02-13T12:17:31Z</time>
      </trkpt>
      <trkpt lat="43.77498" lon="5.34449">
        <ele>347.598022</ele>
        <time>2019-02-13T12:17:47Z</time>
      </trkpt>
      <trkpt lat="43.77489" lon="5.34467">
        <ele>347.164062</ele>
        <time>2019-02-13T12:18:02Z</time>
      </trkpt>
      <trkpt lat="43.77487" lon="5.34496">
        <ele>345.58551</ele>
        <time>2019-02-13T12:18:18Z</time>
      </trkpt>
      <trkpt lat="43.77486" lon="5.34521">
        <ele>344.266815</ele>
        <time>2019-02-13T12:18:34Z</time>
      </trkpt>
      <trkpt lat="43.77479" lon="5.34538">
        <ele>343.179504</ele>
        <time>2019-02-13T12:18:49Z</time>
      </trkpt>
      <trkpt lat="43.77473" lon="5.3456">
        <ele>341.668091</ele>
        <time>2019-02-13T12:19:05Z</time>
      </trkpt>
      <trkpt lat="43.77467" lon="5.34582">
        <ele>339.716309</ele>
        <time>2019-02-13T12:19:21Z</time>
      </trkpt>
      <trkpt lat="43.77459" lon="5.34602">
        <ele>338.263245</ele>
        <time>2019-02-13T12:19:37Z</time>
      </trkpt>
      <trkpt lat="43.77445" lon="5.34615">
        <ele>336.034271</ele>
        <time>2019-02-13T12:19:53Z</time>
      </trkpt>
      <trkpt lat="43.77441" lon="5.34637">
        <ele>334.006439</ele>
        <time>2019-02-13T12:20:09Z</time>
      </trkpt>
      <trkpt lat="43.77435" lon="5.3466">
        <ele>331.369629</ele>
        <time>2019-02-13T12:20:25Z</time>
      </trkpt>
      <trkpt lat="43.77435" lon="5.34679">
        <ele>328.945862</ele>
        <time>2019-02-13T12:20:42Z</time>
      </trkpt>
      <trkpt lat="43.77432" lon="5.34705">
        <ele>324.643402</ele>
        <time>2019-02-13T12:20:58Z</time>
      </trkpt>
      <trkpt lat="43.77426" lon="5.34725">
        <ele>320.421387</ele>
        <time>2019-02-13T12:21:13Z</time>
      </trkpt>
      <trkpt lat="43.77426" lon="5.34747">
        <ele>317.135132</ele>
        <time>2019-02-13T12:21:29Z</time>
      </trkpt>
      <trkpt lat="43.77417" lon="5.34761">
        <ele>313.611511</ele>
        <time>2019-02-13T12:21:44Z</time>
      </trkpt>
      <trkpt lat="43.774" lon="5.34772">
        <ele>313.030273</ele>
        <time>2019-02-13T12:22:00Z</time>
      </trkpt>
      <trkpt lat="43.77388" lon="5.34782">
        <ele>311.901306</ele>
        <time>2019-02-13T12:22:21Z</time>
      </trkpt>
      <trkpt lat="43.77377" lon="5.34795">
        <ele>309.939697</ele>
        <time>2019-02-13T12:22:40Z</time>
      </trkpt>
      <trkpt lat="43.77364" lon="5.34809">
        <ele>307.093506</ele>
        <time>2019-02-13T12:22:56Z</time>
      </trkpt>
      <trkpt lat="43.77354" lon="5.34823">
        <ele>303.861237</ele>
        <time>2019-02-13T12:23:16Z</time>
      </trkpt>
      <trkpt lat="43.77346" lon="5.3484">
        <ele>300.18161</ele>
        <time>2019-02-13T12:23:31Z</time>
      </trkpt>
      <trkpt lat="43.77335" lon="5.34852">
        <ele>297.139893</ele>
        <time>2019-02-13T12:23:46Z</time>
      </trkpt>
      <trkpt lat="43.77321" lon="5.34845">
        <ele>295.304199</ele>
        <time>2019-02-13T12:24:10Z</time>
      </trkpt>
      <trkpt lat="43.77311" lon="5.34833">
        <ele>295.006165</ele>
        <time>2019-02-13T12:24:42Z</time>
      </trkpt>
      <trkpt lat="43.77295" lon="5.34824">
        <ele>293.718445</ele>
        <time>2019-02-13T12:24:58Z</time>
      </trkpt>
      <trkpt lat="43.77282" lon="5.34818">
        <ele>292.17392</ele>
        <time>2019-02-13T12:25:27Z</time>
      </trkpt>
      <trkpt lat="43.77268" lon="5.34817">
        <ele>289.522552</ele>
        <time>2019-02-13T12:25:46Z</time>
      </trkpt>
      <trkpt lat="43.77253" lon="5.34813">
        <ele>287.17511</ele>
        <time>2019-02-13T12:26:02Z</time>
      </trkpt>
      <trkpt lat="43.77238" lon="5.3481">
        <ele>282.886414</ele>
        <time>2019-02-13T12:26:18Z</time>
      </trkpt>
      <trkpt lat="43.77224" lon="5.34808">
        <ele>278.588715</ele>
        <time>2019-02-13T12:27:30Z</time>
      </trkpt>
      <trkpt lat="43.77214" lon="5.34794">
        <ele>276.465485</ele>
        <time>2019-02-13T12:27:48Z</time>
      </trkpt>
      <trkpt lat="43.77207" lon="5.34773">
        <ele>276.07663</ele>
        <time>2019-02-13T12:28:03Z</time>
      </trkpt>
      <trkpt lat="43.77207" lon="5.3475">
        <ele>277.991577</ele>
        <time>2019-02-13T12:28:19Z</time>
      </trkpt>
      <trkpt lat="43.77209" lon="5.34726">
        <ele>280.458649</ele>
        <time>2019-02-13T12:28:34Z</time>
      </trkpt>
      <trkpt lat="43.77211" lon="5.34699">
        <ele>282.758148</ele>
        <time>2019-02-13T12:28:50Z</time>
      </trkpt>
      <trkpt lat="43.77201" lon="5.34685">
        <ele>280.175629</ele>
        <time>2019-02-13T12:29:07Z</time>
      </trkpt>
      <trkpt lat="43.77188" lon="5.34681">
        <ele>275.330994</ele>
        <time>2019-02-13T12:29:28Z</time>
      </trkpt>
      <trkpt lat="43.77175" lon="5.34678">
        <ele>270.427582</ele>
        <time>2019-02-13T12:29:45Z</time>
      </trkpt>
      <trkpt lat="43.77164" lon="5.34664">
        <ele>267.452515</ele>
        <time>2019-02-13T12:30:00Z</time>
      </trkpt>
      <trkpt lat="43.77159" lon="5.34646">
        <ele>266.93515</ele>
        <time>2019-02-13T12:30:16Z</time>
      </trkpt>
      <trkpt lat="43.77149" lon="5.34658">
        <ele>263.633911</ele>
        <time>2019-02-13T12:31:27Z</time>
      </trkpt>
      <trkpt lat="43.77135" lon="5.34657">
        <ele>259.916046</ele>
        <time>2019-02-13T12:31:49Z</time>
      </trkpt>
      <trkpt lat="43.77123" lon="5.34646">
        <ele>257.67218</ele>
        <time>2019-02-13T12:32:10Z</time>
      </trkpt>
      <trkpt lat="43.77117" lon="5.34629">
        <ele>257.761169</ele>
        <time>2019-02-13T12:32:27Z</time>
      </trkpt>
      <trkpt lat="43.77104" lon="5.34635">
        <ele>253.995895</ele>
        <time>2019-02-13T12:33:01Z</time>
      </trkpt>
      <trkpt lat="43.77092" lon="5.34656">
        <ele>248.523376</ele>
        <time>2019-02-13T12:33:17Z</time>
      </trkpt>
      <trkpt lat="43.77083" lon="5.34675">
        <ele>244.551727</ele>
        <time>2019-02-13T12:33:32Z</time>
      </trkpt>
      <trkpt lat="43.77068" lon="5.34692">
        <ele>241.710358</ele>
        <time>2019-02-13T12:33:48Z</time>
      </trkpt>
      <trkpt lat="43.77052" lon="5.34705">
        <ele>238.360733</ele>
        <time>2019-02-13T12:34:04Z</time>
      </trkpt>
      <trkpt lat="43.77037" lon="5.34716">
        <ele>235.01413</ele>
        <time>2019-02-13T12:34:20Z</time>
      </trkpt>
      <trkpt lat="43.77024" lon="5.34721">
        <ele>232.224594</ele>
        <time>2019-02-13T12:34:41Z</time>
      </trkpt>
      <trkpt lat="43.77006" lon="5.34732">
        <ele>227.695618</ele>
        <time>2019-02-13T12:34:57Z</time>
      </trkpt>
      <trkpt lat="43.76989" lon="5.34739">
        <ele>225.024323</ele>
        <time>2019-02-13T12:35:13Z</time>
      </trkpt>
      <trkpt lat="43.76971" lon="5.3475">
        <ele>222.957153</ele>
        <time>2019-02-13T12:35:29Z</time>
      </trkpt>
      <trkpt lat="43.76953" lon="5.34757">
        <ele>221.93927</ele>
        <time>2019-02-13T12:35:45Z</time>
      </trkpt>
      <trkpt lat="43.76937" lon="5.3475">
        <ele>221.741623</ele>
        <time>2019-02-13T12:36:01Z</time>
      </trkpt>
      <trkpt lat="43.76931" lon="5.34733">
        <ele>222.78804</ele>
        <time>2019-02-13T12:36:28Z</time>
      </trkpt>
      <trkpt lat="43.76935" lon="5.34753">
        <ele>221.479324</ele>
        <time>2019-02-13T12:37:04Z</time>
      </trkpt>
      <trkpt lat="43.76929" lon="5.34775">
        <ele>220.019913</ele>
        <time>2019-02-13T12:37:20Z</time>
      </trkpt>
      <trkpt lat="43.76926" lon="5.34798">
        <ele>218.48996</ele>
        <time>2019-02-13T12:37:35Z</time>
      </trkpt>
      <trkpt lat="43.76938" lon="5.34824">
        <ele>217.526428</ele>
        <time>2019-02-13T12:37:51Z</time>
      </trkpt>
      <trkpt lat="43.76948" lon="5.34846">
        <ele>217.11937</ele>
        <time>2019-02-13T12:38:07Z</time>
      </trkpt>
      <trkpt lat="43.76953" lon="5.34868">
        <ele>216.714417</ele>
        <time>2019-02-13T12:38:22Z</time>
      </trkpt>
      <trkpt lat="43.7696" lon="5.34889">
        <ele>216.418106</ele>
        <time>2019-02-13T12:38:38Z</time>
      </trkpt>
      <trkpt lat="43.76966" lon="5.34907">
        <ele>216.078461</ele>
        <time>2019-02-13T12:38:53Z</time>
      </trkpt>
      <trkpt lat="43.7697" lon="5.34929">
        <ele>215.313538</ele>
        <time>2019-02-13T12:39:09Z</time>
      </trkpt>
      <trkpt lat="43.76973" lon="5.34951">
        <ele>214.384308</ele>
        <time>2019-02-13T12:39:25Z</time>
      </trkpt>
      <trkpt lat="43.76976" lon="5.34969">
        <ele>213.684586</ele>
        <time>2019-02-13T12:39:57Z</time>
      </trkpt>
      <trkpt lat="43.76979" lon="5.34993">
        <ele>212.839874</ele>
        <time>2019-02-13T12:40:13Z</time>
      </trkpt>
      <trkpt lat="43.76983" lon="5.35014">
        <ele>211.216003</ele>
        <time>2019-02-13T12:40:44Z</time>
      </trkpt>
      <trkpt lat="43.76995" lon="5.35005">
        <ele>213.027466</ele>
        <time>2019-02-13T12:41:01Z</time>
      </trkpt>
      <trkpt lat="43.77011" lon="5.34999">
        <ele>214.309799</ele>
        <time>2019-02-13T12:41:17Z</time>
      </trkpt>
      <trkpt lat="43.77028" lon="5.34988">
        <ele>215.585587</ele>
        <time>2019-02-13T12:41:32Z</time>
      </trkpt>
      <trkpt lat="43.77042" lon="5.34982">
        <ele>216.620712</ele>
        <time>2019-02-13T12:41:48Z</time>
      </trkpt>
      <trkpt lat="43.77054" lon="5.34991">
        <ele>216.306046</ele>
        <time>2019-02-13T12:42:04Z</time>
      </trkpt>
      <trkpt lat="43.77065" lon="5.35003">
        <ele>215.335236</ele>
        <time>2019-02-13T12:42:38Z</time>
      </trkpt>
      <trkpt lat="43.7707" lon="5.35022">
        <ele>214.130524</ele>
        <time>2019-02-13T12:42:54Z</time>
      </trkpt>
      <trkpt lat="43.77077" lon="5.35046">
        <ele>212.915268</ele>
        <time>2019-02-13T12:43:10Z</time>
      </trkpt>
      <trkpt lat="43.77083" lon="5.35066">
        <ele>212.02182</ele>
        <time>2019-02-13T12:43:26Z</time>
      </trkpt>
      <trkpt lat="43.77089" lon="5.35088">
        <ele>211.286667</ele>
        <time>2019-02-13T12:43:42Z</time>
      </trkpt>
      <trkpt lat="43.77097" lon="5.35107">
        <ele>210.329926</ele>
        <time>2019-02-13T12:43:57Z</time>
      </trkpt>
      <trkpt lat="43.77108" lon="5.35126">
        <ele>210.031311</ele>
        <time>2019-02-13T12:44:12Z</time>
      </trkpt>
      <trkpt lat="43.77121" lon="5.35144">
        <ele>210.69101</ele>
        <time>2019-02-13T12:44:28Z</time>
      </trkpt>
      <trkpt lat="43.77128" lon="5.35165">
        <ele>210.277832</ele>
        <time>2019-02-13T12:44:43Z</time>
      </trkpt>
      <trkpt lat="43.77133" lon="5.35184">
        <ele>209.147797</ele>
        <time>2019-02-13T12:44:59Z</time>
      </trkpt>
      <trkpt lat="43.77139" lon="5.35207">
        <ele>207.672729</ele>
        <time>2019-02-13T12:45:15Z</time>
      </trkpt>
      <trkpt lat="43.77143" lon="5.35226">
        <ele>206.078766</ele>
        <time>2019-02-13T12:45:33Z</time>
      </trkpt>
      <trkpt lat="43.77152" lon="5.3524">
        <ele>205.905914</ele>
        <time>2019-02-13T12:45:57Z</time>
      </trkpt>
      <trkpt lat="43.77162" lon="5.35255">
        <ele>205.766113</ele>
        <time>2019-02-13T12:46:17Z</time>
      </trkpt>
      <trkpt lat="43.77177" lon="5.35274">
        <ele>207.31665</ele>
        <time>2019-02-13T12:46:32Z</time>
      </trkpt>
      <trkpt lat="43.77188" lon="5.35293">
        <ele>207.809662</ele>
        <time>2019-02-13T12:46:48Z</time>
      </trkpt>
      <trkpt lat="43.77186" lon="5.35313">
        <ele>204.835281</ele>
        <time>2019-02-13T12:47:47Z</time>
      </trkpt>
      <trkpt lat="43.77196" lon="5.35327">
        <ele>205.484314</ele>
        <time>2019-02-13T12:48:07Z</time>
      </trkpt>
      <trkpt lat="43.77207" lon="5.35337">
        <ele>206.961365</ele>
        <time>2019-02-13T12:48:26Z</time>
      </trkpt>
      <trkpt lat="43.77219" lon="5.35346">
        <ele>208.522369</ele>
        <time>2019-02-13T12:48:41Z</time>
      </trkpt>
      <trkpt lat="43.77229" lon="5.3536">
        <ele>208.775909</ele>
        <time>2019-02-13T12:48:58Z</time>
      </trkpt>
      <trkpt lat="43.77237" lon="5.35376">
        <ele>207.618164</ele>
        <time>2019-02-13T12:49:13Z</time>
      </trkpt>
      <trkpt lat="43.77244" lon="5.35393">
        <ele>205.742996</ele>
        <time>2019-02-13T12:49:28Z</time>
      </trkpt>
      <trkpt lat="43.77257" lon="5.35391">
        <ele>208.559998</ele>
        <time>2019-02-13T12:49:47Z</time>
      </trkpt>
      <trkpt lat="43.77274" lon="5.35384">
        <ele>213.781372</ele>
        <time>2019-02-13T12:50:02Z</time>
      </trkpt>
      <trkpt lat="43.77287" lon="5.35379">
        <ele>217.167511</ele>
        <time>2019-02-13T12:50:25Z</time>
      </trkpt>
      <trkpt lat="43.77301" lon="5.35382">
        <ele>220.249359</ele>
        <time>2019-02-13T12:51:05Z</time>
      </trkpt>
      <trkpt lat="43.77311" lon="5.35363">
        <ele>221.865936</ele>
        <time>2019-02-13T12:51:21Z</time>
      </trkpt>
      <trkpt lat="43.77321" lon="5.35348">
        <ele>222.294434</ele>
        <time>2019-02-13T12:51:36Z</time>
      </trkpt>
      <trkpt lat="43.77329" lon="5.35333">
        <ele>221.778366</ele>
        <time>2019-02-13T12:51:56Z</time>
      </trkpt>
      <trkpt lat="43.77337" lon="5.35312">
        <ele>227.407257</ele>
        <time>2019-02-13T12:52:12Z</time>
      </trkpt>
      <trkpt lat="43.77337" lon="5.35286">
        <ele>232.625198</ele>
        <time>2019-02-13T12:52:28Z</time>
      </trkpt>
      <trkpt lat="43.77349" lon="5.35276">
        <ele>233.307709</ele>
        <time>2019-02-13T12:52:54Z</time>
      </trkpt>
      <trkpt lat="43.77365" lon="5.35261">
        <ele>231.286087</ele>
        <time>2019-02-13T12:53:09Z</time>
      </trkpt>
      <trkpt lat="43.77375" lon="5.35249">
        <ele>228.385025</ele>
        <time>2019-02-13T12:53:24Z</time>
      </trkpt>
      <trkpt lat="43.7738" lon="5.3523">
        <ele>231.996719</ele>
        <time>2019-02-13T12:54:07Z</time>
      </trkpt>
      <trkpt lat="43.77398" lon="5.3522">
        <ele>228.439407</ele>
        <time>2019-02-13T12:54:22Z</time>
      </trkpt>
      <trkpt lat="43.77421" lon="5.35214">
        <ele>223.1297</ele>
        <time>2019-02-13T12:54:37Z</time>
      </trkpt>
      <trkpt lat="43.77432" lon="5.35201">
        <ele>225.341049</ele>
        <time>2019-02-13T12:55:00Z</time>
      </trkpt>
      <trkpt lat="43.77449" lon="5.35192">
        <ele>225.253021</ele>
        <time>2019-02-13T12:55:15Z</time>
      </trkpt>
      <trkpt lat="43.77462" lon="5.35173">
        <ele>225.089325</ele>
        <time>2019-02-13T12:55:31Z</time>
      </trkpt>
      <trkpt lat="43.77471" lon="5.35159">
        <ele>225.32309</ele>
        <time>2019-02-13T12:55:46Z</time>
      </trkpt>
      <trkpt lat="43.77483" lon="5.35141">
        <ele>226.275162</ele>
        <time>2019-02-13T12:56:02Z</time>
      </trkpt>
      <trkpt lat="43.77498" lon="5.35125">
        <ele>224.643967</ele>
        <time>2019-02-13T12:56:18Z</time>
      </trkpt>
      <trkpt lat="43.77509" lon="5.35112">
        <ele>226.784271</ele>
        <time>2019-02-13T12:56:33Z</time>
      </trkpt>
      <trkpt lat="43.77522" lon="5.35109">
        <ele>228.454727</ele>
        <time>2019-02-13T12:56:49Z</time>
      </trkpt>
      <trkpt lat="43.77534" lon="5.35093">
        <ele>229.83548</ele>
        <time>2019-02-13T12:57:04Z</time>
      </trkpt>
      <trkpt lat="43.77542" lon="5.35072">
        <ele>229.908417</ele>
        <time>2019-02-13T12:57:20Z</time>
      </trkpt>
      <trkpt lat="43.77555" lon="5.3505">
        <ele>228.316345</ele>
        <time>2019-02-13T12:57:36Z</time>
      </trkpt>
      <trkpt lat="43.77568" lon="5.35032">
        <ele>225.19223</ele>
        <time>2019-02-13T12:57:52Z</time>
      </trkpt>
      <trkpt lat="43.7758" lon="5.35017">
        <ele>221.169403</ele>
        <time>2019-02-13T12:58:07Z</time>
      </trkpt>
      <trkpt lat="43.77592" lon="5.35">
        <ele>219.229477</ele>
        <time>2019-02-13T12:58:23Z</time>
      </trkpt>
      <trkpt lat="43.77603" lon="5.34983">
        <ele>222.099854</ele>
        <time>2019-02-13T12:58:38Z</time>
      </trkpt>
      <trkpt lat="43.77616" lon="5.34965">
        <ele>224.053009</ele>
        <time>2019-02-13T12:58:54Z</time>
      </trkpt>
      <trkpt lat="43.77631" lon="5.34955">
        <ele>224.629364</ele>
        <time>2019-02-13T12:59:09Z</time>
      </trkpt>
      <trkpt lat="43.77649" lon="5.34947">
        <ele>224.428391</ele>
        <time>2019-02-13T12:59:25Z</time>
      </trkpt>
      <trkpt lat="43.77666" lon="5.34946">
        <ele>224.124634</ele>
        <time>2019-02-13T12:59:41Z</time>
      </trkpt>
      <trkpt lat="43.77686" lon="5.3495">
        <ele>224.568268</ele>
        <time>2019-02-13T12:59:57Z</time>
      </trkpt>
      <trkpt lat="43.77702" lon="5.34958">
        <ele>224.858368</ele>
        <time>2019-02-13T13:00:12Z</time>
      </trkpt>
      <trkpt lat="43.77719" lon="5.34966">
        <ele>224.527573</ele>
        <time>2019-02-13T13:00:28Z</time>
      </trkpt>
      <trkpt lat="43.77735" lon="5.34973">
        <ele>223.665176</ele>
        <time>2019-02-13T13:00:44Z</time>
      </trkpt>
      <trkpt lat="43.7775" lon="5.34979">
        <ele>222.53566</ele>
        <time>2019-02-13T13:00:59Z</time>
      </trkpt>
      <trkpt lat="43.77766" lon="5.34982">
        <ele>222.505875</ele>
        <time>2019-02-13T13:01:15Z</time>
      </trkpt>
      <trkpt lat="43.77784" lon="5.34984">
        <ele>222.477173</ele>
        <time>2019-02-13T13:01:31Z</time>
      </trkpt>
      <trkpt lat="43.778" lon="5.34983">
        <ele>222.73642</ele>
        <time>2019-02-13T13:01:46Z</time>
      </trkpt>
      <trkpt lat="43.77814" lon="5.34984">
        <ele>222.654495</ele>
        <time>2019-02-13T13:02:02Z</time>
      </trkpt>
      <trkpt lat="43.77832" lon="5.34982">
        <ele>223.203201</ele>
        <time>2019-02-13T13:02:18Z</time>
      </trkpt>
      <trkpt lat="43.77851" lon="5.34978">
        <ele>225.126007</ele>
        <time>2019-02-13T13:02:34Z</time>
      </trkpt>
      <trkpt lat="43.77867" lon="5.3497">
        <ele>226.820038</ele>
        <time>2019-02-13T13:02:49Z</time>
      </trkpt>
      <trkpt lat="43.77879" lon="5.34956">
        <ele>228.212173</ele>
        <time>2019-02-13T13:03:05Z</time>
      </trkpt>
      <trkpt lat="43.77894" lon="5.34946">
        <ele>228.517563</ele>
        <time>2019-02-13T13:03:20Z</time>
      </trkpt>
      <trkpt lat="43.7791" lon="5.34933">
        <ele>227.926224</ele>
        <time>2019-02-13T13:03:36Z</time>
      </trkpt>
      <trkpt lat="43.77929" lon="5.34926">
        <ele>227.741272</ele>
        <time>2019-02-13T13:03:51Z</time>
      </trkpt>
      <trkpt lat="43.77949" lon="5.34921">
        <ele>227.868683</ele>
        <time>2019-02-13T13:04:07Z</time>
      </trkpt>
      <trkpt lat="43.77967" lon="5.34925">
        <ele>228.798828</ele>
        <time>2019-02-13T13:04:22Z</time>
      </trkpt>
      <trkpt lat="43.77983" lon="5.34937">
        <ele>231.50473</ele>
        <time>2019-02-13T13:04:38Z</time>
      </trkpt>
      <trkpt lat="43.77999" lon="5.34947">
        <ele>234.789398</ele>
        <time>2019-02-13T13:04:54Z</time>
      </trkpt>
      <trkpt lat="43.78014" lon="5.34957">
        <ele>241.0401</ele>
        <time>2019-02-13T13:05:09Z</time>
      </trkpt>
      <trkpt lat="43.78031" lon="5.34959">
        <ele>246.21344</ele>
        <time>2019-02-13T13:05:25Z</time>
      </trkpt>
      <trkpt lat="43.78043" lon="5.34946">
        <ele>245.740326</ele>
        <time>2019-02-13T13:05:40Z</time>
      </trkpt>
      <trkpt lat="43.78055" lon="5.34927">
        <ele>243.212158</ele>
        <time>2019-02-13T13:05:56Z</time>
      </trkpt>
      <trkpt lat="43.7806" lon="5.34904">
        <ele>239.823181</ele>
        <time>2019-02-13T13:06:11Z</time>
      </trkpt>
      <trkpt lat="43.78061" lon="5.34877">
        <ele>237.590164</ele>
        <time>2019-02-13T13:06:27Z</time>
      </trkpt>
      <trkpt lat="43.78065" lon="5.34856">
        <ele>235.973709</ele>
        <time>2019-02-13T13:06:42Z</time>
      </trkpt>
      <trkpt lat="43.78067" lon="5.34832">
        <ele>233.784988</ele>
        <time>2019-02-13T13:06:57Z</time>
      </trkpt>
      <trkpt lat="43.78078" lon="5.34814">
        <ele>232.737518</ele>
        <time>2019-02-13T13:07:12Z</time>
      </trkpt>
      <trkpt lat="43.78086" lon="5.34794">
        <ele>231.282455</ele>
        <time>2019-02-13T13:07:28Z</time>
      </trkpt>
      <trkpt lat="43.78096" lon="5.34771">
        <ele>230.514008</ele>
        <time>2019-02-13T13:07:44Z</time>
      </trkpt>
      <trkpt lat="43.78106" lon="5.34751">
        <ele>229.079483</ele>
        <time>2019-02-13T13:08:00Z</time>
      </trkpt>
      <trkpt lat="43.78123" lon="5.34742">
        <ele>231.376282</ele>
        <time>2019-02-13T13:08:16Z</time>
      </trkpt>
      <trkpt lat="43.78141" lon="5.34741">
        <ele>232.514557</ele>
        <time>2019-02-13T13:08:32Z</time>
      </trkpt>
      <trkpt lat="43.78157" lon="5.34746">
        <ele>233.371109</ele>
        <time>2019-02-13T13:08:48Z</time>
      </trkpt>
      <trkpt lat="43.78176" lon="5.34753">
        <ele>235.104248</ele>
        <time>2019-02-13T13:09:03Z</time>
      </trkpt>
      <trkpt lat="43.78192" lon="5.34764">
        <ele>239.074036</ele>
        <time>2019-02-13T13:09:19Z</time>
      </trkpt>
      <trkpt lat="43.78208" lon="5.34772">
        <ele>241.659515</ele>
        <time>2019-02-13T13:09:34Z</time>
      </trkpt>
      <trkpt lat="43.78227" lon="5.34778">
        <ele>243.614838</ele>
        <time>2019-02-13T13:09:50Z</time>
      </trkpt>
      <trkpt lat="43.78247" lon="5.34789">
        <ele>246.669891</ele>
        <time>2019-02-13T13:10:06Z</time>
      </trkpt>
      <trkpt lat="43.78261" lon="5.34795">
        <ele>248.193359</ele>
        <time>2019-02-13T13:10:22Z</time>
      </trkpt>
      <trkpt lat="43.78276" lon="5.34798">
        <ele>248.564026</ele>
        <time>2019-02-13T13:10:37Z</time>
      </trkpt>
      <trkpt lat="43.78295" lon="5.34799">
        <ele>248.515289</ele>
        <time>2019-02-13T13:10:53Z</time>
      </trkpt>
      <trkpt lat="43.7831" lon="5.348">
        <ele>248.379242</ele>
        <time>2019-02-13T13:11:08Z</time>
      </trkpt>
      <trkpt lat="43.7833" lon="5.34795">
        <ele>246.462708</ele>
        <time>2019-02-13T13:11:24Z</time>
      </trkpt>
      <trkpt lat="43.78348" lon="5.34791">
        <ele>246.750351</ele>
        <time>2019-02-13T13:11:39Z</time>
      </trkpt>
      <trkpt lat="43.78369" lon="5.34787">
        <ele>247.528046</ele>
        <time>2019-02-13T13:11:55Z</time>
      </trkpt>
      <trkpt lat="43.78387" lon="5.34788">
        <ele>249.680496</ele>
        <time>2019-02-13T13:12:11Z</time>
      </trkpt>
      <trkpt lat="43.78402" lon="5.34785">
        <ele>250.010071</ele>
        <time>2019-02-13T13:12:26Z</time>
      </trkpt>
      <trkpt lat="43.78412" lon="5.34767">
        <ele>244.214584</ele>
        <time>2019-02-13T13:12:42Z</time>
      </trkpt>
      <trkpt lat="43.78427" lon="5.34754">
        <ele>241.171143</ele>
        <time>2019-02-13T13:12:58Z</time>
      </trkpt>
      <trkpt lat="43.78438" lon="5.34736">
        <ele>240.28215</ele>
        <time>2019-02-13T13:13:14Z</time>
      </trkpt>
      <trkpt lat="43.78438" lon="5.34706">
        <ele>238.204529</ele>
        <time>2019-02-13T13:13:29Z</time>
      </trkpt>
      <trkpt lat="43.78432" lon="5.3468">
        <ele>236.156876</ele>
        <time>2019-02-13T13:13:45Z</time>
      </trkpt>
      <trkpt lat="43.78431" lon="5.34661">
        <ele>235.847244</ele>
        <time>2019-02-13T13:14:00Z</time>
      </trkpt>
      <trkpt lat="43.78435" lon="5.34636">
        <ele>238.056091</ele>
        <time>2019-02-13T13:14:16Z</time>
      </trkpt>
      <trkpt lat="43.78444" lon="5.34615">
        <ele>239.788895</ele>
        <time>2019-02-13T13:14:31Z</time>
      </trkpt>
      <trkpt lat="43.78462" lon="5.34601">
        <ele>240.688629</ele>
        <time>2019-02-13T13:14:47Z</time>
      </trkpt>
      <trkpt lat="43.7848" lon="5.34602">
        <ele>240.351639</ele>
        <time>2019-02-13T13:15:03Z</time>
      </trkpt>
      <trkpt lat="43.78491" lon="5.34618">
        <ele>239.360748</ele>
        <time>2019-02-13T13:15:19Z</time>
      </trkpt>
      <trkpt lat="43.78498" lon="5.34639">
        <ele>238.299973</ele>
        <time>2019-02-13T13:15:34Z</time>
      </trkpt>
      <trkpt lat="43.78502" lon="5.3466">
        <ele>237.588837</ele>
        <time>2019-02-13T13:15:49Z</time>
      </trkpt>
      <trkpt lat="43.78504" lon="5.34685">
        <ele>240.40744</ele>
        <time>2019-02-13T13:16:04Z</time>
      </trkpt>
      <trkpt lat="43.78506" lon="5.34711">
        <ele>244.732132</ele>
        <time>2019-02-13T13:16:20Z</time>
      </trkpt>
      <trkpt lat="43.78513" lon="5.34728">
        <ele>247.156021</ele>
        <time>2019-02-13T13:16:36Z</time>
      </trkpt>
      <trkpt lat="43.78517" lon="5.34751">
        <ele>250.080292</ele>
        <time>2019-02-13T13:16:52Z</time>
      </trkpt>
      <trkpt lat="43.78533" lon="5.34761">
        <ele>252.641174</ele>
        <time>2019-02-13T13:17:08Z</time>
      </trkpt>
      <trkpt lat="43.78551" lon="5.34763">
        <ele>251.889496</ele>
        <time>2019-02-13T13:17:24Z</time>
      </trkpt>
      <trkpt lat="43.7857" lon="5.34767">
        <ele>251.579636</ele>
        <time>2019-02-13T13:17:40Z</time>
      </trkpt>
      <trkpt lat="43.78585" lon="5.34765">
        <ele>249.822647</ele>
        <time>2019-02-13T13:17:55Z</time>
      </trkpt>
      <trkpt lat="43.78584" lon="5.34786">
        <ele>256.484802</ele>
        <time>2019-02-13T13:18:29Z</time>
      </trkpt>
      <trkpt lat="43.78591" lon="5.34768">
        <ele>250.657089</ele>
        <time>2019-02-13T13:18:51Z</time>
      </trkpt>
      <trkpt lat="43.78607" lon="5.34767">
        <ele>249.863098</ele>
        <time>2019-02-13T13:19:07Z</time>
      </trkpt>
      <trkpt lat="43.78621" lon="5.34757">
        <ele>246.74411</ele>
        <time>2019-02-13T13:19:22Z</time>
      </trkpt>
      <trkpt lat="43.78643" lon="5.34751">
        <ele>244.568451</ele>
        <time>2019-02-13T13:19:37Z</time>
      </trkpt>
      <trkpt lat="43.78667" lon="5.34749">
        <ele>244.279358</ele>
        <time>2019-02-13T13:19:53Z</time>
      </trkpt>
      <trkpt lat="43.78681" lon="5.34745">
        <ele>244.458679</ele>
        <time>2019-02-13T13:20:12Z</time>
      </trkpt>
      <trkpt lat="43.78702" lon="5.34745">
        <ele>243.705353</ele>
        <time>2019-02-13T13:20:28Z</time>
      </trkpt>
      <trkpt lat="43.78715" lon="5.34752">
        <ele>242.77742</ele>
        <time>2019-02-13T13:20:43Z</time>
      </trkpt>
      <trkpt lat="43.7874" lon="5.3475">
        <ele>241.37941</ele>
        <time>2019-02-13T13:20:59Z</time>
      </trkpt>
      <trkpt lat="43.78757" lon="5.34762">
        <ele>243.461105</ele>
        <time>2019-02-13T13:21:15Z</time>
      </trkpt>
      <trkpt lat="43.78769" lon="5.34774">
        <ele>245.902618</ele>
        <time>2019-02-13T13:21:30Z</time>
      </trkpt>
      <trkpt lat="43.78788" lon="5.34789">
        <ele>248.328583</ele>
        <time>2019-02-13T13:21:46Z</time>
      </trkpt>
      <trkpt lat="43.788" lon="5.348">
        <ele>249.945282</ele>
        <time>2019-02-13T13:22:02Z</time>
      </trkpt>
      <trkpt lat="43.78806" lon="5.34817">
        <ele>252.240936</ele>
        <time>2019-02-13T13:22:19Z</time>
      </trkpt>
      <trkpt lat="43.78823" lon="5.34821">
        <ele>252.039673</ele>
        <time>2019-02-13T13:22:35Z</time>
      </trkpt>
      <trkpt lat="43.78845" lon="5.34823">
        <ele>252.805832</ele>
        <time>2019-02-13T13:22:50Z</time>
      </trkpt>
      <trkpt lat="43.78868" lon="5.3483">
        <ele>255.732819</ele>
        <time>2019-02-13T13:23:05Z</time>
      </trkpt>
      <trkpt lat="43.78887" lon="5.34832">
        <ele>257.882141</ele>
        <time>2019-02-13T13:23:20Z</time>
      </trkpt>
      <trkpt lat="43.78901" lon="5.34803">
        <ele>254.009232</ele>
        <time>2019-02-13T13:23:36Z</time>
      </trkpt>
      <trkpt lat="43.78918" lon="5.34785">
        <ele>252.003998</ele>
        <time>2019-02-13T13:23:52Z</time>
      </trkpt>
      <trkpt lat="43.78925" lon="5.34761">
        <ele>249.016144</ele>
        <time>2019-02-13T13:24:08Z</time>
      </trkpt>
      <trkpt lat="43.7894" lon="5.34739">
        <ele>249.841675</ele>
        <time>2019-02-13T13:24:24Z</time>
      </trkpt>
      <trkpt lat="43.78955" lon="5.34729">
        <ele>252.140045</ele>
        <time>2019-02-13T13:24:40Z</time>
      </trkpt>
      <trkpt lat="43.78976" lon="5.34718">
        <ele>254.009445</ele>
        <time>2019-02-13T13:24:56Z</time>
      </trkpt>
      <trkpt lat="43.78994" lon="5.34702">
        <ele>253.290939</ele>
        <time>2019-02-13T13:25:12Z</time>
      </trkpt>
      <trkpt lat="43.79003" lon="5.34686">
        <ele>251.135437</ele>
        <time>2019-02-13T13:25:36Z</time>
      </trkpt>
      <trkpt lat="43.79018" lon="5.34675">
        <ele>251.224045</ele>
        <time>2019-02-13T13:25:51Z</time>
      </trkpt>
      <trkpt lat="43.79033" lon="5.3466">
        <ele>251.93927</ele>
        <time>2019-02-13T13:26:06Z</time>
      </trkpt>
      <trkpt lat="43.79048" lon="5.34647">
        <ele>253.516907</ele>
        <time>2019-02-13T13:26:22Z</time>
      </trkpt>
      <trkpt lat="43.79061" lon="5.34632">
        <ele>253.674072</ele>
        <time>2019-02-13T13:26:37Z</time>
      </trkpt>
      <trkpt lat="43.7908" lon="5.34622">
        <ele>253.041687</ele>
        <time>2019-02-13T13:26:53Z</time>
      </trkpt>
      <trkpt lat="43.79096" lon="5.34615">
        <ele>254.63385</ele>
        <time>2019-02-13T13:27:09Z</time>
      </trkpt>
      <trkpt lat="43.79113" lon="5.34607">
        <ele>255.918762</ele>
        <time>2019-02-13T13:27:25Z</time>
      </trkpt>
      <trkpt lat="43.79126" lon="5.34596">
        <ele>255.060669</ele>
        <time>2019-02-13T13:27:40Z</time>
      </trkpt>
      <trkpt lat="43.79146" lon="5.34588">
        <ele>254.687775</ele>
        <time>2019-02-13T13:27:56Z</time>
      </trkpt>
      <trkpt lat="43.79164" lon="5.34583">
        <ele>254.818405</ele>
        <time>2019-02-13T13:28:11Z</time>
      </trkpt>
      <trkpt lat="43.79181" lon="5.34573">
        <ele>257.235382</ele>
        <time>2019-02-13T13:28:27Z</time>
      </trkpt>
      <trkpt lat="43.79201" lon="5.34569">
        <ele>259.672882</ele>
        <time>2019-02-13T13:28:42Z</time>
      </trkpt>
      <trkpt lat="43.79214" lon="5.34562">
        <ele>260.687103</ele>
        <time>2019-02-13T13:28:58Z</time>
      </trkpt>
      <trkpt lat="43.7923" lon="5.34556">
        <ele>261.488098</ele>
        <time>2019-02-13T13:29:13Z</time>
      </trkpt>
      <trkpt lat="43.79244" lon="5.34546">
        <ele>260.972412</ele>
        <time>2019-02-13T13:29:28Z</time>
      </trkpt>
      <trkpt lat="43.79265" lon="5.34537">
        <ele>262.839905</ele>
        <time>2019-02-13T13:29:44Z</time>
      </trkpt>
      <trkpt lat="43.79283" lon="5.34525">
        <ele>263.673218</ele>
        <time>2019-02-13T13:30:00Z</time>
      </trkpt>
      <trkpt lat="43.79298" lon="5.34512">
        <ele>263.326385</ele>
        <time>2019-02-13T13:30:16Z</time>
      </trkpt>
      <trkpt lat="43.79314" lon="5.34498">
        <ele>262.558167</ele>
        <time>2019-02-13T13:30:32Z</time>
      </trkpt>
      <trkpt lat="43.79326" lon="5.34477">
        <ele>261.848389</ele>
        <time>2019-02-13T13:30:47Z</time>
      </trkpt>
      <trkpt lat="43.7934" lon="5.34466">
        <ele>261.419281</ele>
        <time>2019-02-13T13:31:02Z</time>
      </trkpt>
      <trkpt lat="43.79351" lon="5.34451">
        <ele>259.801849</ele>
        <time>2019-02-13T13:31:17Z</time>
      </trkpt>
      <trkpt lat="43.79364" lon="5.34437">
        <ele>257.828339</ele>
        <time>2019-02-13T13:31:33Z</time>
      </trkpt>
      <trkpt lat="43.79379" lon="5.34432">
        <ele>257.411743</ele>
        <time>2019-02-13T13:31:49Z</time>
      </trkpt>
      <trkpt lat="43.79394" lon="5.34423">
        <ele>255.375809</ele>
        <time>2019-02-13T13:32:04Z</time>
      </trkpt>
      <trkpt lat="43.79412" lon="5.34418">
        <ele>254.466446</ele>
        <time>2019-02-13T13:32:19Z</time>
      </trkpt>
      <trkpt lat="43.7943" lon="5.34411">
        <ele>254.080933</ele>
        <time>2019-02-13T13:32:35Z</time>
      </trkpt>
      <trkpt lat="43.79448" lon="5.34402">
        <ele>254.197266</ele>
        <time>2019-02-13T13:32:50Z</time>
      </trkpt>
      <trkpt lat="43.79463" lon="5.34404">
        <ele>254.408752</ele>
        <time>2019-02-13T13:33:05Z</time>
      </trkpt>
      <trkpt lat="43.79477" lon="5.34409">
        <ele>254.629517</ele>
        <time>2019-02-13T13:33:21Z</time>
      </trkpt>
    </trkseg>
  </trk>
</gpx>